OMD616 KMCO-GOBD
Flight info
| Callsign | OMD616 |
|---|---|
| Flight time | 7h 31m |
| Altitude | 39000 |
| Route | MZULO3 LENDS M203 SNAGY 2960N 2957N 2950N 2945N 2842N 2740N 2434N ULTEM UR976 LUMPO R976 LIGOV |
| Aircraft | A320/M-SDE3FGHIRWY/LB1 |
Departure
| Time | 2026-04-25 11:52 |
|---|---|
| Airport | Orlando International Airport (KMCO) |
Arrival
| Time | 2026-04-25 19:23 |
|---|---|
| Airport | Blaise Diagne International Airport (GOBD) |
| Time | Latitude | Longitude | Altitude | Speed | Heading |
|---|---|---|---|---|---|
| 2026-04-25 10:43 | 28.43126 | -81.33150 | 106 ft | 0 kts | 1° |
| 2026-04-25 11:23 | 28.43137 | -81.33149 | 104 ft | 2 kts | 10° |
| 2026-04-25 11:24 | 28.43150 | -81.33134 | 106 ft | 4 kts | 58° |
| 2026-04-25 11:24 | 28.43151 | -81.33117 | 107 ft | 1 kts | 91° |
| 2026-04-25 11:24 | 28.43151 | -81.33115 | 107 ft | 0 kts | 91° |
| 2026-04-25 11:24 | 28.43150 | -81.33096 | 107 ft | 6 kts | 91° |
| 2026-04-25 11:25 | 28.43150 | -81.33052 | 108 ft | 6 kts | 90° |
| 2026-04-25 11:25 | 28.43151 | -81.33014 | 109 ft | 6 kts | 88° |
| 2026-04-25 11:25 | 28.43152 | -81.32993 | 110 ft | 0 kts | 87° |
| 2026-04-25 11:26 | 28.43152 | -81.32990 | 110 ft | 3 kts | 87° |
| 2026-04-25 11:27 | 28.43094 | -81.32926 | 111 ft | 16 kts | 168° |
| 2026-04-25 11:27 | 28.42973 | -81.32923 | 108 ft | 19 kts | 179° |
| 2026-04-25 11:27 | 28.42835 | -81.32921 | 105 ft | 21 kts | 179° |
| 2026-04-25 11:27 | 28.42747 | -81.32920 | 104 ft | 16 kts | 179° |
| 2026-04-25 11:28 | 28.42654 | -81.32882 | 104 ft | 7 kts | 106° |
| 2026-04-25 11:28 | 28.42652 | -81.32831 | 104 ft | 6 kts | 90° |
| 2026-04-25 11:28 | 28.42652 | -81.32804 | 103 ft | 3 kts | 90° |
| 2026-04-25 11:28 | 28.42652 | -81.32787 | 103 ft | 0 kts | 89° |
| 2026-04-25 11:31 | 28.42652 | -81.32786 | 103 ft | 2 kts | 89° |
| 2026-04-25 11:31 | 28.42652 | -81.32741 | 103 ft | 7 kts | 90° |
| 2026-04-25 11:31 | 28.42649 | -81.32678 | 102 ft | 9 kts | 101° |
| 2026-04-25 11:31 | 28.42617 | -81.32603 | 102 ft | 12 kts | 120° |
| 2026-04-25 11:32 | 28.42561 | -81.32494 | 106 ft | 17 kts | 120° |
| 2026-04-25 11:32 | 28.42498 | -81.32371 | 106 ft | 19 kts | 120° |
| 2026-04-25 11:32 | 28.42433 | -81.32242 | 110 ft | 19 kts | 120° |
| 2026-04-25 11:32 | 28.42373 | -81.32124 | 111 ft | 16 kts | 120° |
| 2026-04-25 11:33 | 28.42355 | -81.32087 | 110 ft | 0 kts | 116° |
| 2026-04-25 11:33 | 28.42354 | -81.32085 | 110 ft | 0 kts | 116° |
| 2026-04-25 11:33 | 28.42354 | -81.32084 | 110 ft | 0 kts | 116° |
| 2026-04-25 11:35 | 28.42348 | -81.32048 | 110 ft | 17 kts | 89° |
| 2026-04-25 11:36 | 28.42347 | -81.31891 | 108 ft | 21 kts | 89° |
| 2026-04-25 11:36 | 28.42348 | -81.31719 | 105 ft | 23 kts | 90° |
| 2026-04-25 11:36 | 28.42349 | -81.31524 | 102 ft | 26 kts | 89° |
| 2026-04-25 11:36 | 28.42351 | -81.31321 | 100 ft | 26 kts | 89° |
| 2026-04-25 11:37 | 28.42331 | -81.31111 | 100 ft | 28 kts | 101° |
| 2026-04-25 11:37 | 28.42320 | -81.30909 | 100 ft | 24 kts | 86° |
| 2026-04-25 11:37 | 28.42332 | -81.30749 | 106 ft | 19 kts | 85° |
| 2026-04-25 11:37 | 28.42341 | -81.30624 | 106 ft | 13 kts | 85° |
| 2026-04-25 11:38 | 28.42347 | -81.30540 | 106 ft | 9 kts | 85° |
| 2026-04-25 11:38 | 28.42352 | -81.30468 | 104 ft | 10 kts | 86° |
| 2026-04-25 11:38 | 28.42357 | -81.30367 | 101 ft | 13 kts | 88° |
| 2026-04-25 11:38 | 28.42359 | -81.30249 | 102 ft | 16 kts | 88° |
| 2026-04-25 11:39 | 28.42361 | -81.30118 | 104 ft | 18 kts | 89° |
| 2026-04-25 11:39 | 28.42362 | -81.29967 | 104 ft | 20 kts | 89° |
| 2026-04-25 11:39 | 28.42385 | -81.29815 | 103 ft | 20 kts | 42° |
| 2026-04-25 11:39 | 28.42521 | -81.29795 | 103 ft | 21 kts | 359° |
| 2026-04-25 11:40 | 28.42656 | -81.29796 | 103 ft | 19 kts | 360° |
| 2026-04-25 11:40 | 28.42768 | -81.29798 | 103 ft | 14 kts | 359° |
| 2026-04-25 11:40 | 28.42856 | -81.29798 | 103 ft | 12 kts | 359° |
| 2026-04-25 11:40 | 28.42936 | -81.29799 | 103 ft | 11 kts | 359° |
| 2026-04-25 11:41 | 28.43007 | -81.29800 | 103 ft | 9 kts | 359° |
| 2026-04-25 11:41 | 28.43068 | -81.29801 | 103 ft | 8 kts | 359° |
| 2026-04-25 11:41 | 28.43121 | -81.29801 | 103 ft | 7 kts | 359° |
| 2026-04-25 11:41 | 28.43170 | -81.29802 | 103 ft | 8 kts | 359° |
| 2026-04-25 11:42 | 28.43230 | -81.29802 | 103 ft | 1 kts | 359° |
| 2026-04-25 11:48 | 28.43242 | -81.29802 | 103 ft | 6 kts | 359° |
| 2026-04-25 11:48 | 28.43290 | -81.29803 | 103 ft | 6 kts | 359° |
| 2026-04-25 11:48 | 28.43331 | -81.29804 | 103 ft | 6 kts | 359° |
| 2026-04-25 11:49 | 28.43384 | -81.29804 | 103 ft | 16 kts | 359° |
| 2026-04-25 11:49 | 28.43507 | -81.29805 | 104 ft | 15 kts | 2° |
| 2026-04-25 11:49 | 28.43550 | -81.29727 | 103 ft | 13 kts | 89° |
| 2026-04-25 11:49 | 28.43551 | -81.29694 | 103 ft | 0 kts | 90° |
| 2026-04-25 11:50 | 28.43551 | -81.29693 | 103 ft | 1 kts | 90° |
| 2026-04-25 11:50 | 28.43551 | -81.29671 | 103 ft | 4 kts | 90° |
| 2026-04-25 11:50 | 28.43551 | -81.29626 | 104 ft | 6 kts | 90° |
| 2026-04-25 11:51 | 28.43536 | -81.29593 | 103 ft | 4 kts | 146° |
| 2026-04-25 11:51 | 28.43412 | -81.29586 | 107 ft | 51 kts | 180° |
| 2026-04-25 11:51 | 28.42810 | -81.29580 | 104 ft | 119 kts | 179° |
| 2026-04-25 11:51 | 28.41806 | -81.29564 | 242 ft | 157 kts | 178° |
| 2026-04-25 11:52 | 28.40729 | -81.29524 | 938 ft | 157 kts | 178° |
| 2026-04-25 11:52 | 28.39638 | -81.29472 | 1680 ft | 157 kts | 179° |
| 2026-04-25 11:52 | 28.38506 | -81.29341 | 2188 ft | 174 kts | 165° |
| 2026-04-25 11:52 | 28.37350 | -81.28675 | 2520 ft | 200 kts | 147° |
| 2026-04-25 11:53 | 28.36121 | -81.27750 | 2911 ft | 224 kts | 147° |
| 2026-04-25 11:53 | 28.34772 | -81.26682 | 3351 ft | 249 kts | 137° |
| 2026-04-25 11:53 | 28.33797 | -81.24987 | 3918 ft | 266 kts | 106° |
| 2026-04-25 11:53 | 28.33738 | -81.22890 | 4792 ft | 271 kts | 74° |
| 2026-04-25 11:54 | 28.34412 | -81.20877 | 5732 ft | 274 kts | 67° |
| 2026-04-25 11:54 | 28.35119 | -81.18888 | 6652 ft | 277 kts | 68° |
| 2026-04-25 11:54 | 28.36560 | -81.14743 | 8359 ft | 287 kts | 67° |
| 2026-04-25 11:55 | 28.37294 | -81.12610 | 9210 ft | 293 kts | 67° |
| 2026-04-25 11:55 | 28.38044 | -81.10434 | 10041 ft | 298 kts | 67° |
| 2026-04-25 11:55 | 28.38827 | -81.08177 | 10461 ft | 319 kts | 66° |
| 2026-04-25 11:55 | 28.39657 | -81.05788 | 10864 ft | 336 kts | 67° |
| 2026-04-25 11:56 | 28.40518 | -81.03294 | 11577 ft | 342 kts | 67° |
| 2026-04-25 11:56 | 28.41392 | -81.00759 | 12349 ft | 347 kts | 66° |
| 2026-04-25 11:56 | 28.42278 | -80.98188 | 13124 ft | 352 kts | 66° |
| 2026-04-25 11:56 | 28.43175 | -80.95585 | 13881 ft | 356 kts | 66° |
| 2026-04-25 11:57 | 28.44089 | -80.92938 | 14555 ft | 360 kts | 66° |
| 2026-04-25 11:57 | 28.45008 | -80.90273 | 15226 ft | 364 kts | 67° |
| 2026-04-25 11:57 | 28.45935 | -80.87578 | 15884 ft | 369 kts | 66° |
| 2026-04-25 11:57 | 28.46873 | -80.84851 | 16536 ft | 373 kts | 66° |
| 2026-04-25 11:58 | 28.47670 | -80.82027 | 17185 ft | 379 kts | 76° |
| 2026-04-25 11:58 | 28.48064 | -80.79037 | 17814 ft | 385 kts | 81° |
| 2026-04-25 11:58 | 28.48397 | -80.76003 | 18430 ft | 389 kts | 81° |
| 2026-04-25 11:58 | 28.48729 | -80.72984 | 18984 ft | 393 kts | 81° |
| 2026-04-25 11:59 | 28.49075 | -80.69884 | 19544 ft | 396 kts | 81° |
| 2026-04-25 11:59 | 28.49426 | -80.66762 | 20108 ft | 400 kts | 81° |
| 2026-04-25 11:59 | 28.49778 | -80.63610 | 20630 ft | 403 kts | 81° |
| 2026-04-25 12:00 | 28.50362 | -80.58312 | 21544 ft | 409 kts | 81° |
| 2026-04-25 12:00 | 28.50834 | -80.53993 | 22292 ft | 414 kts | 81° |
| 2026-04-25 12:00 | 28.51552 | -80.47441 | 23398 ft | 421 kts | 81° |
| 2026-04-25 12:01 | 28.51917 | -80.44122 | 23874 ft | 424 kts | 81° |
| 2026-04-25 12:01 | 28.52286 | -80.40787 | 24346 ft | 427 kts | 81° |
| 2026-04-25 12:01 | 28.52655 | -80.37430 | 24810 ft | 429 kts | 81° |
| 2026-04-25 12:01 | 28.53017 | -80.34103 | 25265 ft | 431 kts | 81° |
| 2026-04-25 12:02 | 28.54226 | -80.27440 | 26148 ft | 431 kts | 66° |
| 2026-04-25 12:02 | 28.55393 | -80.24293 | 26581 ft | 432 kts | 64° |
| 2026-04-25 12:02 | 28.56596 | -80.21151 | 27005 ft | 434 kts | 64° |
| 2026-04-25 12:03 | 28.57803 | -80.17986 | 27423 ft | 436 kts | 64° |
| 2026-04-25 12:03 | 28.59007 | -80.14811 | 27848 ft | 438 kts | 64° |
| 2026-04-25 12:03 | 28.60215 | -80.11617 | 28276 ft | 440 kts | 64° |
| 2026-04-25 12:03 | 28.61423 | -80.08421 | 28717 ft | 440 kts | 64° |
| 2026-04-25 12:04 | 28.62633 | -80.05210 | 29115 ft | 442 kts | 64° |
| 2026-04-25 12:04 | 28.63845 | -80.01988 | 29492 ft | 444 kts | 64° |
| 2026-04-25 12:04 | 28.65065 | -79.98749 | 29866 ft | 446 kts | 64° |
| 2026-04-25 12:04 | 28.66279 | -79.95539 | 30187 ft | 448 kts | 64° |
| 2026-04-25 12:05 | 28.67516 | -79.92267 | 30477 ft | 450 kts | 64° |
| 2026-04-25 12:05 | 28.68754 | -79.88982 | 30751 ft | 452 kts | 65° |
| 2026-04-25 12:05 | 28.69995 | -79.85677 | 31024 ft | 455 kts | 65° |
| 2026-04-25 12:05 | 28.71239 | -79.82360 | 31288 ft | 457 kts | 65° |
| 2026-04-25 12:06 | 28.72491 | -79.79025 | 31546 ft | 459 kts | 65° |
| 2026-04-25 12:06 | 28.73743 | -79.75685 | 31889 ft | 458 kts | 65° |
| 2026-04-25 12:06 | 28.74994 | -79.72350 | 32252 ft | 457 kts | 65° |
| 2026-04-25 12:06 | 28.76249 | -79.69008 | 32613 ft | 457 kts | 65° |
| 2026-04-25 12:07 | 28.77483 | -79.65721 | 32964 ft | 456 kts | 65° |
| 2026-04-25 12:07 | 28.78727 | -79.62395 | 33323 ft | 456 kts | 65° |
| 2026-04-25 12:07 | 28.79968 | -79.59066 | 33680 ft | 456 kts | 65° |
| 2026-04-25 12:07 | 28.81352 | -79.55823 | 34018 ft | 453 kts | 57° |
| 2026-04-25 12:08 | 28.83103 | -79.52850 | 34318 ft | 451 kts | 52° |
| 2026-04-25 12:08 | 28.84935 | -79.49950 | 34636 ft | 450 kts | 52° |
| 2026-04-25 12:08 | 28.86758 | -79.47065 | 34983 ft | 447 kts | 52° |
| 2026-04-25 12:08 | 28.88577 | -79.44185 | 35294 ft | 446 kts | 52° |
| 2026-04-25 12:09 | 28.90385 | -79.41313 | 35586 ft | 446 kts | 52° |
| 2026-04-25 12:09 | 28.92187 | -79.38436 | 35830 ft | 446 kts | 52° |
| 2026-04-25 12:09 | 28.93990 | -79.35557 | 36077 ft | 445 kts | 52° |
| 2026-04-25 12:09 | 28.95788 | -79.32679 | 36336 ft | 445 kts | 52° |
| 2026-04-25 12:10 | 28.97584 | -79.29804 | 36574 ft | 444 kts | 51° |
| 2026-04-25 12:10 | 28.99379 | -79.26930 | 36821 ft | 444 kts | 51° |
| 2026-04-25 12:10 | 29.01174 | -79.24061 | 37061 ft | 443 kts | 51° |
| 2026-04-25 12:10 | 29.02970 | -79.21193 | 37278 ft | 443 kts | 51° |
| 2026-04-25 12:11 | 29.04761 | -79.18329 | 37504 ft | 443 kts | 51° |
| 2026-04-25 12:11 | 29.06524 | -79.15505 | 37723 ft | 442 kts | 51° |
| 2026-04-25 12:11 | 29.08312 | -79.12643 | 37938 ft | 442 kts | 51° |
| 2026-04-25 12:11 | 29.10094 | -79.09786 | 38169 ft | 441 kts | 51° |
| 2026-04-25 12:12 | 29.11867 | -79.06928 | 38436 ft | 439 kts | 51° |
| 2026-04-25 12:12 | 29.13036 | -79.05042 | 38607 ft | 439 kts | 51° |
| 2026-04-25 12:12 | 29.15403 | -79.01229 | 38766 ft | 440 kts | 51° |
| 2026-04-25 12:12 | 29.17180 | -78.98374 | 38922 ft | 439 kts | 51° |
| 2026-04-25 12:13 | 29.20739 | -78.92659 | 38996 ft | 442 kts | 51° |
| 2026-04-25 12:13 | 29.24302 | -78.86924 | 38998 ft | 442 kts | 51° |
| 2026-04-25 12:14 | 29.27835 | -78.81205 | 38991 ft | 442 kts | 51° |
| 2026-04-25 12:14 | 29.31386 | -78.75448 | 38999 ft | 442 kts | 51° |
| 2026-04-25 12:15 | 29.34339 | -78.70667 | 39000 ft | 442 kts | 51° |
| 2026-04-25 12:15 | 29.37346 | -78.64496 | 39007 ft | 448 kts | 68° |
| 2026-04-25 12:16 | 29.39357 | -78.57709 | 39010 ft | 450 kts | 68° |
| 2026-04-25 12:16 | 29.40642 | -78.50658 | 38998 ft | 454 kts | 78° |
| 2026-04-25 12:17 | 29.41566 | -78.43495 | 38998 ft | 454 kts | 79° |
| 2026-04-25 12:17 | 29.42472 | -78.36351 | 39000 ft | 455 kts | 79° |
| 2026-04-25 12:18 | 29.43386 | -78.29168 | 39007 ft | 455 kts | 79° |
| 2026-04-25 12:18 | 29.44298 | -78.21982 | 39004 ft | 455 kts | 79° |
| 2026-04-25 12:19 | 29.45660 | -78.11183 | 39013 ft | 455 kts | 79° |
| 2026-04-25 12:20 | 29.46569 | -78.03983 | 39018 ft | 455 kts | 79° |
| 2026-04-25 12:20 | 29.47467 | -77.96781 | 39015 ft | 456 kts | 79° |
| 2026-04-25 12:21 | 29.48358 | -77.89577 | 39017 ft | 456 kts | 79° |
| 2026-04-25 12:21 | 29.49253 | -77.82365 | 39010 ft | 457 kts | 79° |
| 2026-04-25 12:22 | 29.50139 | -77.75185 | 39012 ft | 457 kts | 79° |
| 2026-04-25 12:22 | 29.51023 | -77.67947 | 39010 ft | 457 kts | 79° |
| 2026-04-25 12:23 | 29.51904 | -77.60713 | 39012 ft | 458 kts | 79° |
| 2026-04-25 12:23 | 29.52782 | -77.53473 | 39025 ft | 458 kts | 80° |
| 2026-04-25 12:24 | 29.53656 | -77.46237 | 39024 ft | 457 kts | 80° |
| 2026-04-25 12:24 | 29.54529 | -77.39002 | 39027 ft | 457 kts | 80° |
| 2026-04-25 12:25 | 29.55396 | -77.31771 | 39029 ft | 457 kts | 80° |
| 2026-04-25 12:25 | 29.56256 | -77.24588 | 39022 ft | 457 kts | 80° |
| 2026-04-25 12:26 | 29.57113 | -77.17346 | 39024 ft | 457 kts | 81° |
| 2026-04-25 12:26 | 29.57962 | -77.10121 | 39023 ft | 456 kts | 81° |
| 2026-04-25 12:27 | 29.58811 | -77.02884 | 39025 ft | 456 kts | 81° |
| 2026-04-25 12:27 | 29.59659 | -76.95650 | 39025 ft | 456 kts | 81° |
| 2026-04-25 12:28 | 29.60495 | -76.88471 | 39030 ft | 456 kts | 81° |
| 2026-04-25 12:28 | 29.60890 | -76.81193 | 39032 ft | 457 kts | 88° |
| 2026-04-25 12:29 | 29.61067 | -76.73887 | 39030 ft | 457 kts | 88° |
| 2026-04-25 12:29 | 29.61253 | -76.66590 | 39029 ft | 457 kts | 87° |
| 2026-04-25 12:30 | 29.61450 | -76.59292 | 39031 ft | 457 kts | 88° |
| 2026-04-25 12:30 | 29.61635 | -76.51996 | 39031 ft | 457 kts | 88° |
| 2026-04-25 12:31 | 29.61812 | -76.44698 | 39037 ft | 457 kts | 88° |
| 2026-04-25 12:31 | 29.61986 | -76.37406 | 39046 ft | 456 kts | 88° |
| 2026-04-25 12:32 | 29.62156 | -76.30116 | 39036 ft | 456 kts | 88° |
| 2026-04-25 12:32 | 29.62321 | -76.22821 | 39037 ft | 456 kts | 88° |
| 2026-04-25 12:33 | 29.62484 | -76.15581 | 39039 ft | 456 kts | 88° |
| 2026-04-25 12:33 | 29.62645 | -76.08294 | 39040 ft | 456 kts | 88° |
| 2026-04-25 12:34 | 29.62802 | -76.01016 | 39041 ft | 455 kts | 89° |
| 2026-04-25 12:34 | 29.62950 | -75.93739 | 39050 ft | 455 kts | 89° |
| 2026-04-25 12:35 | 29.63094 | -75.86446 | 39047 ft | 455 kts | 89° |
| 2026-04-25 12:35 | 29.63235 | -75.79180 | 39059 ft | 454 kts | 89° |
| 2026-04-25 12:36 | 29.63379 | -75.71972 | 39050 ft | 453 kts | 89° |
| 2026-04-25 12:36 | 29.63509 | -75.64742 | 39052 ft | 452 kts | 89° |
| 2026-04-25 12:37 | 29.63639 | -75.57523 | 39054 ft | 451 kts | 89° |
| 2026-04-25 12:37 | 29.63761 | -75.50325 | 39052 ft | 450 kts | 89° |
| 2026-04-25 12:38 | 29.63885 | -75.43127 | 39059 ft | 450 kts | 89° |
| 2026-04-25 12:38 | 29.63996 | -75.35979 | 39049 ft | 450 kts | 89° |
| 2026-04-25 12:39 | 29.64108 | -75.28789 | 39049 ft | 449 kts | 89° |
| 2026-04-25 12:39 | 29.64220 | -75.21612 | 39049 ft | 449 kts | 89° |
| 2026-04-25 12:40 | 29.64325 | -75.14411 | 39046 ft | 449 kts | 89° |
| 2026-04-25 12:40 | 29.64420 | -75.07226 | 39050 ft | 449 kts | 90° |
| 2026-04-25 12:41 | 29.64518 | -75.00088 | 39045 ft | 449 kts | 90° |
| 2026-04-25 12:41 | 29.64620 | -74.92910 | 39045 ft | 449 kts | 90° |
| 2026-04-25 12:42 | 29.64711 | -74.85731 | 39046 ft | 449 kts | 90° |
| 2026-04-25 12:42 | 29.64796 | -74.78551 | 39046 ft | 449 kts | 90° |
| 2026-04-25 12:43 | 29.64880 | -74.71371 | 39043 ft | 449 kts | 90° |
| 2026-04-25 12:43 | 29.65000 | -74.60602 | 39052 ft | 449 kts | 90° |
| 2026-04-25 12:44 | 29.65071 | -74.53465 | 39046 ft | 449 kts | 90° |
| 2026-04-25 12:45 | 29.65169 | -74.42693 | 39046 ft | 449 kts | 90° |
| 2026-04-25 12:45 | 29.65271 | -74.31912 | 39053 ft | 449 kts | 90° |
| 2026-04-25 12:46 | 29.65326 | -74.24732 | 39052 ft | 449 kts | 90° |
| 2026-04-25 12:46 | 29.65376 | -74.17552 | 39049 ft | 449 kts | 90° |
| 2026-04-25 12:47 | 29.65428 | -74.10414 | 39052 ft | 449 kts | 90° |
| 2026-04-25 12:47 | 29.65474 | -74.03230 | 39056 ft | 449 kts | 90° |
| 2026-04-25 12:48 | 29.65512 | -73.96041 | 39050 ft | 449 kts | 90° |
| 2026-04-25 12:48 | 29.65555 | -73.88842 | 39048 ft | 450 kts | 90° |
| 2026-04-25 12:49 | 29.65587 | -73.81700 | 39049 ft | 450 kts | 90° |
| 2026-04-25 12:49 | 29.65604 | -73.74505 | 39053 ft | 450 kts | 90° |
| 2026-04-25 12:50 | 29.65630 | -73.67309 | 39054 ft | 450 kts | 90° |
| 2026-04-25 12:50 | 29.65663 | -73.60104 | 39047 ft | 450 kts | 90° |
| 2026-04-25 12:51 | 29.65682 | -73.52903 | 39048 ft | 451 kts | 90° |
| 2026-04-25 12:51 | 29.65697 | -73.45692 | 39049 ft | 451 kts | 90° |
| 2026-04-25 12:52 | 29.65701 | -73.38479 | 39051 ft | 451 kts | 90° |
| 2026-04-25 12:52 | 29.65710 | -73.31267 | 39061 ft | 451 kts | 90° |
| 2026-04-25 12:53 | 29.65716 | -73.24098 | 39051 ft | 451 kts | 90° |
| 2026-04-25 12:53 | 29.65718 | -73.16872 | 39049 ft | 452 kts | 90° |
| 2026-04-25 12:54 | 29.65713 | -73.09649 | 39054 ft | 452 kts | 90° |
| 2026-04-25 12:54 | 29.65702 | -73.02413 | 39054 ft | 452 kts | 90° |
| 2026-04-25 12:55 | 29.65691 | -72.96405 | 39060 ft | 452 kts | 90° |
| 2026-04-25 12:55 | 29.65674 | -72.87948 | 39050 ft | 453 kts | 90° |
| 2026-04-25 12:56 | 29.65652 | -72.80704 | 39050 ft | 453 kts | 90° |
| 2026-04-25 12:56 | 29.65625 | -72.73445 | 39052 ft | 454 kts | 90° |
| 2026-04-25 12:57 | 29.65600 | -72.66234 | 39051 ft | 454 kts | 91° |
| 2026-04-25 12:57 | 29.65567 | -72.58980 | 39049 ft | 454 kts | 91° |
| 2026-04-25 12:58 | 29.65524 | -72.51720 | 39050 ft | 454 kts | 91° |
| 2026-04-25 12:58 | 29.65487 | -72.44456 | 39050 ft | 455 kts | 91° |
| 2026-04-25 12:59 | 29.65446 | -72.37173 | 39048 ft | 455 kts | 91° |
| 2026-04-25 12:59 | 29.65396 | -72.29900 | 39049 ft | 455 kts | 91° |
| 2026-04-25 13:00 | 29.65360 | -72.25083 | 39050 ft | 455 kts | 91° |
| 2026-04-25 13:00 | 29.65285 | -72.15378 | 39049 ft | 456 kts | 91° |
| 2026-04-25 13:01 | 29.65230 | -72.08078 | 39049 ft | 457 kts | 91° |
| 2026-04-25 13:01 | 29.65167 | -72.00773 | 39052 ft | 457 kts | 91° |
| 2026-04-25 13:02 | 29.65098 | -71.93458 | 39055 ft | 458 kts | 91° |
| 2026-04-25 13:02 | 29.65026 | -71.86139 | 39049 ft | 458 kts | 91° |
| 2026-04-25 13:03 | 29.64951 | -71.78800 | 39049 ft | 459 kts | 91° |
| 2026-04-25 13:03 | 29.64870 | -71.71507 | 39055 ft | 460 kts | 91° |
| 2026-04-25 13:04 | 29.64781 | -71.64154 | 39061 ft | 460 kts | 91° |
| 2026-04-25 13:04 | 29.64695 | -71.56794 | 39078 ft | 460 kts | 91° |
| 2026-04-25 13:05 | 29.64606 | -71.49444 | 39066 ft | 460 kts | 91° |
| 2026-04-25 13:05 | 29.64510 | -71.42096 | 39063 ft | 459 kts | 91° |
| 2026-04-25 13:06 | 29.64406 | -71.34748 | 39061 ft | 459 kts | 91° |
| 2026-04-25 13:06 | 29.64314 | -71.28650 | 39068 ft | 459 kts | 91° |
| 2026-04-25 13:07 | 29.64200 | -71.21315 | 39064 ft | 459 kts | 91° |
| 2026-04-25 13:07 | 29.64068 | -71.12789 | 39063 ft | 459 kts | 91° |
| 2026-04-25 13:08 | 29.63974 | -71.06690 | 39064 ft | 459 kts | 91° |
| 2026-04-25 13:08 | 29.63856 | -70.99347 | 39063 ft | 458 kts | 91° |
| 2026-04-25 13:09 | 29.63730 | -70.92020 | 39065 ft | 459 kts | 91° |
| 2026-04-25 13:09 | 29.63599 | -70.84693 | 39052 ft | 459 kts | 91° |
| 2026-04-25 13:10 | 29.63466 | -70.77354 | 39052 ft | 460 kts | 91° |
| 2026-04-25 13:10 | 29.63329 | -70.69997 | 39054 ft | 460 kts | 91° |
| 2026-04-25 13:11 | 29.63190 | -70.62690 | 39058 ft | 461 kts | 91° |
| 2026-04-25 13:11 | 29.63041 | -70.55325 | 39063 ft | 461 kts | 91° |
| 2026-04-25 13:12 | 29.62893 | -70.47955 | 39058 ft | 461 kts | 91° |
| 2026-04-25 13:12 | 29.62767 | -70.41829 | 39061 ft | 461 kts | 91° |
| 2026-04-25 13:13 | 29.62584 | -70.33252 | 39057 ft | 462 kts | 91° |
| 2026-04-25 13:13 | 29.62424 | -70.25863 | 39060 ft | 462 kts | 91° |
| 2026-04-25 13:14 | 29.62264 | -70.18465 | 39055 ft | 463 kts | 92° |
| 2026-04-25 13:14 | 29.62090 | -70.11061 | 39051 ft | 464 kts | 92° |
| 2026-04-25 13:15 | 29.61912 | -70.03634 | 39057 ft | 465 kts | 92° |
| 2026-04-25 13:15 | 29.61732 | -69.96241 | 39062 ft | 466 kts | 92° |
| 2026-04-25 13:16 | 29.61541 | -69.88784 | 39067 ft | 466 kts | 92° |
| 2026-04-25 13:16 | 29.61359 | -69.81337 | 39061 ft | 467 kts | 92° |
| 2026-04-25 13:17 | 29.61167 | -69.73881 | 39066 ft | 467 kts | 92° |
| 2026-04-25 13:17 | 29.60963 | -69.66386 | 39065 ft | 468 kts | 92° |
| 2026-04-25 13:18 | 29.60762 | -69.58952 | 39066 ft | 468 kts | 92° |
| 2026-04-25 13:18 | 29.60557 | -69.51442 | 39064 ft | 468 kts | 92° |
| 2026-04-25 13:19 | 29.60355 | -69.43976 | 39073 ft | 468 kts | 92° |
| 2026-04-25 13:19 | 29.60181 | -69.37783 | 39074 ft | 469 kts | 92° |
| 2026-04-25 13:20 | 29.59923 | -69.29061 | 39076 ft | 469 kts | 92° |
| 2026-04-25 13:20 | 29.59694 | -69.21549 | 39077 ft | 469 kts | 92° |
| 2026-04-25 13:21 | 29.59466 | -69.14075 | 39068 ft | 469 kts | 92° |
| 2026-04-25 13:21 | 29.59236 | -69.06592 | 39072 ft | 470 kts | 92° |
| 2026-04-25 13:22 | 29.59001 | -68.99048 | 39063 ft | 470 kts | 92° |
| 2026-04-25 13:23 | 29.58642 | -68.87779 | 39067 ft | 471 kts | 92° |
| 2026-04-25 13:23 | 29.58394 | -68.80284 | 39058 ft | 472 kts | 93° |
| 2026-04-25 13:24 | 29.58151 | -68.72750 | 39058 ft | 473 kts | 93° |
| 2026-04-25 13:24 | 29.57890 | -68.65166 | 39064 ft | 474 kts | 93° |
| 2026-04-25 13:25 | 29.57625 | -68.57650 | 39066 ft | 474 kts | 93° |
| 2026-04-25 13:25 | 29.57349 | -68.50067 | 39067 ft | 475 kts | 93° |
| 2026-04-25 13:26 | 29.57076 | -68.42468 | 39064 ft | 476 kts | 93° |
| 2026-04-25 13:26 | 29.56803 | -68.34894 | 39065 ft | 476 kts | 93° |
| 2026-04-25 13:27 | 29.56527 | -68.27313 | 39069 ft | 476 kts | 93° |
| 2026-04-25 13:27 | 29.56239 | -68.19698 | 39069 ft | 476 kts | 93° |
| 2026-04-25 13:28 | 29.55949 | -68.12118 | 39060 ft | 477 kts | 94° |
| 2026-04-25 13:28 | 29.55657 | -68.04498 | 39063 ft | 478 kts | 94° |
| 2026-04-25 13:29 | 29.55356 | -67.96863 | 39063 ft | 478 kts | 94° |
| 2026-04-25 13:29 | 29.55053 | -67.89231 | 39067 ft | 478 kts | 94° |
| 2026-04-25 13:30 | 29.54592 | -67.77757 | 39070 ft | 478 kts | 94° |
| 2026-04-25 13:31 | 29.54114 | -67.66304 | 39075 ft | 479 kts | 94° |
| 2026-04-25 13:31 | 29.53791 | -67.58712 | 39075 ft | 478 kts | 94° |
| 2026-04-25 13:32 | 29.53465 | -67.51081 | 39064 ft | 478 kts | 94° |
| 2026-04-25 13:32 | 29.53151 | -67.43449 | 39081 ft | 478 kts | 94° |
| 2026-04-25 13:33 | 29.52822 | -67.35814 | 39076 ft | 479 kts | 94° |
| 2026-04-25 13:33 | 29.52482 | -67.28180 | 39072 ft | 479 kts | 94° |
| 2026-04-25 13:34 | 29.52133 | -67.20543 | 39069 ft | 479 kts | 94° |
| 2026-04-25 13:34 | 29.51778 | -67.12897 | 39073 ft | 479 kts | 94° |
| 2026-04-25 13:35 | 29.51429 | -67.05290 | 39073 ft | 480 kts | 94° |
| 2026-04-25 13:35 | 29.51082 | -66.97640 | 39074 ft | 480 kts | 94° |
| 2026-04-25 13:36 | 29.50727 | -66.89976 | 39075 ft | 480 kts | 94° |
| 2026-04-25 13:36 | 29.50354 | -66.82325 | 39073 ft | 480 kts | 95° |
| 2026-04-25 13:37 | 29.49977 | -66.74722 | 39074 ft | 480 kts | 95° |
| 2026-04-25 13:37 | 29.49599 | -66.67078 | 39075 ft | 480 kts | 94° |
| 2026-04-25 13:38 | 29.49226 | -66.59409 | 39073 ft | 480 kts | 95° |
| 2026-04-25 13:38 | 29.48845 | -66.51760 | 39068 ft | 480 kts | 95° |
| 2026-04-25 13:39 | 29.48456 | -66.44106 | 39071 ft | 480 kts | 95° |
| 2026-04-25 13:39 | 29.48068 | -66.36507 | 39073 ft | 479 kts | 95° |
| 2026-04-25 13:40 | 29.47677 | -66.28865 | 39073 ft | 479 kts | 95° |
| 2026-04-25 13:40 | 29.47275 | -66.21221 | 39063 ft | 480 kts | 95° |
| 2026-04-25 13:41 | 29.46865 | -66.13559 | 39060 ft | 481 kts | 95° |
| 2026-04-25 13:41 | 29.46459 | -66.05885 | 39060 ft | 482 kts | 95° |
| 2026-04-25 13:42 | 29.46050 | -65.98261 | 39065 ft | 482 kts | 95° |
| 2026-04-25 13:42 | 29.45631 | -65.90582 | 39060 ft | 483 kts | 96° |
| 2026-04-25 13:43 | 29.45198 | -65.82887 | 39052 ft | 484 kts | 96° |
| 2026-04-25 13:43 | 29.44764 | -65.75179 | 39052 ft | 485 kts | 96° |
| 2026-04-25 13:44 | 29.44333 | -65.67448 | 39057 ft | 485 kts | 96° |
| 2026-04-25 13:44 | 29.43898 | -65.59712 | 39046 ft | 486 kts | 97° |
| 2026-04-25 13:45 | 29.43532 | -65.53276 | 39033 ft | 487 kts | 97° |
| 2026-04-25 13:45 | 29.43002 | -65.44242 | 39064 ft | 488 kts | 96° |
| 2026-04-25 13:46 | 29.42543 | -65.36469 | 39070 ft | 488 kts | 96° |
| 2026-04-25 13:46 | 29.42081 | -65.28700 | 39068 ft | 488 kts | 97° |
| 2026-04-25 13:47 | 29.41611 | -65.20918 | 39047 ft | 490 kts | 98° |
| 2026-04-25 13:47 | 29.41137 | -65.13113 | 39044 ft | 491 kts | 97° |
| 2026-04-25 13:48 | 29.40663 | -65.05275 | 39050 ft | 492 kts | 97° |
| 2026-04-25 13:48 | 29.40190 | -64.97483 | 39050 ft | 493 kts | 99° |
| 2026-04-25 13:49 | 29.39696 | -64.89613 | 39027 ft | 496 kts | 99° |
| 2026-04-25 13:49 | 29.39185 | -64.81695 | 39031 ft | 499 kts | 99° |
| 2026-04-25 13:50 | 29.38681 | -64.73752 | 39036 ft | 500 kts | 99° |
| 2026-04-25 13:50 | 29.38183 | -64.65781 | 39044 ft | 501 kts | 99° |
| 2026-04-25 13:51 | 29.37667 | -64.57800 | 39052 ft | 502 kts | 99° |
| 2026-04-25 13:51 | 29.37140 | -64.49817 | 39060 ft | 502 kts | 99° |
| 2026-04-25 13:52 | 29.36610 | -64.41828 | 39066 ft | 502 kts | 99° |
| 2026-04-25 13:52 | 29.36085 | -64.33833 | 39050 ft | 503 kts | 101° |
| 2026-04-25 13:53 | 29.35552 | -64.25870 | 39035 ft | 505 kts | 101° |
| 2026-04-25 13:53 | 29.34996 | -64.17823 | 39037 ft | 507 kts | 101° |
| 2026-04-25 13:54 | 29.34450 | -64.09754 | 39042 ft | 508 kts | 101° |
| 2026-04-25 13:54 | 29.33902 | -64.01670 | 39024 ft | 509 kts | 102° |
| 2026-04-25 13:55 | 29.33429 | -63.94934 | 39031 ft | 511 kts | 102° |
| 2026-04-25 13:55 | 29.32753 | -63.85424 | 39035 ft | 513 kts | 102° |
| 2026-04-25 13:56 | 29.32182 | -63.77257 | 39035 ft | 514 kts | 102° |
| 2026-04-25 13:56 | 29.31694 | -63.70457 | 39033 ft | 515 kts | 103° |
| 2026-04-25 13:57 | 29.31108 | -63.62275 | 39075 ft | 516 kts | 102° |
| 2026-04-25 13:57 | 29.30427 | -63.52752 | 39076 ft | 516 kts | 102° |
| 2026-04-25 13:58 | 29.29825 | -63.44556 | 39073 ft | 516 kts | 102° |
| 2026-04-25 13:58 | 29.29313 | -63.37686 | 39054 ft | 516 kts | 103° |
| 2026-04-25 13:59 | 29.28701 | -63.29488 | 39060 ft | 516 kts | 103° |
| 2026-04-25 13:59 | 29.28085 | -63.21344 | 39066 ft | 517 kts | 103° |
| 2026-04-25 14:00 | 29.27571 | -63.14477 | 39069 ft | 517 kts | 103° |
| 2026-04-25 14:00 | 29.26849 | -63.04926 | 39057 ft | 517 kts | 103° |
| 2026-04-25 14:01 | 29.26218 | -62.96696 | 39060 ft | 518 kts | 103° |
| 2026-04-25 14:01 | 29.25586 | -62.88477 | 39063 ft | 518 kts | 104° |
| 2026-04-25 14:02 | 29.24936 | -62.80250 | 39048 ft | 519 kts | 104° |
| 2026-04-25 14:02 | 29.24287 | -62.72065 | 39037 ft | 520 kts | 104° |
| 2026-04-25 14:03 | 29.23637 | -62.63793 | 39036 ft | 522 kts | 103° |
| 2026-04-25 14:03 | 29.22979 | -62.55504 | 39041 ft | 522 kts | 104° |
| 2026-04-25 14:04 | 29.22301 | -62.47192 | 39031 ft | 524 kts | 104° |
| 2026-04-25 14:04 | 29.21622 | -62.38868 | 39034 ft | 526 kts | 104° |
| 2026-04-25 14:05 | 29.20943 | -62.30585 | 39039 ft | 527 kts | 104° |
| 2026-04-25 14:05 | 29.20258 | -62.22228 | 39037 ft | 527 kts | 103° |
| 2026-04-25 14:06 | 29.19570 | -62.13851 | 39041 ft | 528 kts | 103° |
| 2026-04-25 14:06 | 29.18870 | -62.05469 | 39052 ft | 529 kts | 103° |
| 2026-04-25 14:07 | 29.18156 | -61.97084 | 39057 ft | 530 kts | 104° |
| 2026-04-25 14:07 | 29.17442 | -61.88747 | 39053 ft | 530 kts | 103° |
| 2026-04-25 14:08 | 29.16724 | -61.80341 | 39052 ft | 531 kts | 103° |
| 2026-04-25 14:08 | 29.16008 | -61.71914 | 39065 ft | 532 kts | 103° |
| 2026-04-25 14:09 | 29.15273 | -61.63490 | 39064 ft | 532 kts | 103° |
| 2026-04-25 14:09 | 29.14532 | -61.55065 | 39061 ft | 532 kts | 103° |
| 2026-04-25 14:10 | 29.13789 | -61.46638 | 39067 ft | 533 kts | 103° |
| 2026-04-25 14:10 | 29.13038 | -61.38209 | 39066 ft | 533 kts | 104° |
| 2026-04-25 14:11 | 29.12285 | -61.29776 | 39053 ft | 533 kts | 103° |
| 2026-04-25 14:11 | 29.11521 | -61.21344 | 39052 ft | 533 kts | 103° |
| 2026-04-25 14:12 | 29.10756 | -61.12962 | 39061 ft | 534 kts | 103° |
| 2026-04-25 14:12 | 29.09985 | -61.04513 | 39064 ft | 534 kts | 103° |
| 2026-04-25 14:13 | 29.09207 | -60.96066 | 39061 ft | 534 kts | 103° |
| 2026-04-25 14:13 | 29.08426 | -60.87619 | 39065 ft | 534 kts | 103° |
| 2026-04-25 14:14 | 29.07639 | -60.79176 | 39066 ft | 534 kts | 103° |
| 2026-04-25 14:14 | 29.06857 | -60.70740 | 39060 ft | 533 kts | 103° |
| 2026-04-25 14:15 | 29.06062 | -60.62358 | 39069 ft | 533 kts | 103° |
| 2026-04-25 14:15 | 29.05257 | -60.53941 | 39072 ft | 533 kts | 103° |
| 2026-04-25 14:16 | 29.04452 | -60.45532 | 39058 ft | 532 kts | 103° |
| 2026-04-25 14:16 | 29.03639 | -60.37124 | 39068 ft | 531 kts | 103° |
| 2026-04-25 14:17 | 29.02829 | -60.28788 | 39069 ft | 531 kts | 103° |
| 2026-04-25 14:17 | 29.02013 | -60.20404 | 39070 ft | 530 kts | 103° |
| 2026-04-25 14:18 | 29.01197 | -60.12036 | 39065 ft | 530 kts | 103° |
| 2026-04-25 14:18 | 29.00365 | -60.03645 | 39068 ft | 530 kts | 103° |
| 2026-04-25 14:19 | 29.00041 | -59.95219 | 39074 ft | 538 kts | 95° |
| 2026-04-25 14:19 | 29.00139 | -59.86664 | 39054 ft | 539 kts | 95° |
| 2026-04-25 14:20 | 29.00224 | -59.78105 | 39061 ft | 539 kts | 95° |
| 2026-04-25 14:20 | 29.00298 | -59.69549 | 39064 ft | 539 kts | 95° |
| 2026-04-25 14:21 | 29.00376 | -59.60982 | 39066 ft | 539 kts | 95° |
| 2026-04-25 14:21 | 29.00441 | -59.52446 | 39059 ft | 539 kts | 95° |
| 2026-04-25 14:22 | 29.00504 | -59.43884 | 39058 ft | 539 kts | 95° |
| 2026-04-25 14:22 | 29.00566 | -59.35325 | 39064 ft | 539 kts | 95° |
| 2026-04-25 14:23 | 29.00612 | -59.26765 | 39052 ft | 539 kts | 94° |
| 2026-04-25 14:23 | 29.00660 | -59.18194 | 39054 ft | 539 kts | 95° |
| 2026-04-25 14:24 | 29.00700 | -59.09696 | 39056 ft | 538 kts | 95° |
| 2026-04-25 14:24 | 29.00731 | -59.01142 | 39069 ft | 539 kts | 94° |
| 2026-04-25 14:25 | 29.00759 | -58.92568 | 39058 ft | 540 kts | 94° |
| 2026-04-25 14:25 | 29.00790 | -58.83980 | 39058 ft | 540 kts | 94° |
| 2026-04-25 14:26 | 29.00815 | -58.75383 | 39054 ft | 541 kts | 95° |
| 2026-04-25 14:26 | 29.00822 | -58.66784 | 39055 ft | 541 kts | 95° |
| 2026-04-25 14:27 | 29.00831 | -58.58248 | 39055 ft | 541 kts | 95° |
| 2026-04-25 14:27 | 29.00828 | -58.49656 | 39054 ft | 540 kts | 95° |
| 2026-04-25 14:28 | 29.00816 | -58.41071 | 39041 ft | 540 kts | 95° |
| 2026-04-25 14:28 | 29.00811 | -58.32484 | 39044 ft | 540 kts | 95° |
| 2026-04-25 14:29 | 29.00808 | -58.23891 | 39042 ft | 540 kts | 95° |
| 2026-04-25 14:29 | 29.00791 | -58.15356 | 39041 ft | 541 kts | 95° |
| 2026-04-25 14:30 | 29.00760 | -58.06747 | 39066 ft | 541 kts | 95° |
| 2026-04-25 14:30 | 29.00708 | -57.93840 | 39059 ft | 542 kts | 95° |
| 2026-04-25 14:31 | 29.00675 | -57.85218 | 39047 ft | 543 kts | 94° |
| 2026-04-25 14:31 | 29.00632 | -57.76596 | 39049 ft | 543 kts | 95° |
| 2026-04-25 14:32 | 29.00578 | -57.67974 | 39048 ft | 543 kts | 95° |
| 2026-04-25 14:32 | 29.00518 | -57.59346 | 39043 ft | 543 kts | 95° |
| 2026-04-25 14:33 | 29.00459 | -57.50708 | 39048 ft | 543 kts | 95° |
| 2026-04-25 14:33 | 29.00395 | -57.42139 | 39052 ft | 543 kts | 95° |
| 2026-04-25 14:34 | 29.00331 | -57.33504 | 39039 ft | 543 kts | 95° |
| 2026-04-25 14:34 | 29.00257 | -57.24871 | 39048 ft | 544 kts | 95° |
| 2026-04-25 14:35 | 29.00165 | -57.16224 | 39053 ft | 544 kts | 95° |
| 2026-04-25 14:35 | 29.00075 | -57.07575 | 39049 ft | 544 kts | 94° |
| 2026-04-25 14:36 | 28.99987 | -56.98925 | 39044 ft | 544 kts | 94° |
| 2026-04-25 14:36 | 29.00103 | -56.90258 | 39047 ft | 546 kts | 91° |
| 2026-04-25 14:37 | 29.00413 | -56.81639 | 39033 ft | 546 kts | 90° |
| 2026-04-25 14:37 | 29.00700 | -56.72976 | 39043 ft | 546 kts | 91° |
| 2026-04-25 14:38 | 29.00908 | -56.64279 | 39044 ft | 546 kts | 92° |
| 2026-04-25 14:38 | 29.01081 | -56.55605 | 39019 ft | 546 kts | 91° |
| 2026-04-25 14:39 | 29.01260 | -56.46988 | 39027 ft | 546 kts | 91° |
| 2026-04-25 14:39 | 29.01448 | -56.38310 | 39029 ft | 547 kts | 91° |
| 2026-04-25 14:40 | 29.01635 | -56.29627 | 39050 ft | 547 kts | 91° |
| 2026-04-25 14:40 | 29.01814 | -56.20943 | 39047 ft | 546 kts | 91° |
| 2026-04-25 14:41 | 29.01989 | -56.12262 | 39046 ft | 546 kts | 91° |
| 2026-04-25 14:41 | 29.02161 | -56.03591 | 39045 ft | 546 kts | 91° |
| 2026-04-25 14:42 | 29.02267 | -55.97782 | 39038 ft | 546 kts | 91° |
| 2026-04-25 14:42 | 29.02463 | -55.86239 | 39043 ft | 546 kts | 92° |
| 2026-04-25 14:43 | 29.02612 | -55.77568 | 39038 ft | 546 kts | 91° |
| 2026-04-25 14:43 | 29.02761 | -55.68884 | 39036 ft | 547 kts | 91° |
| 2026-04-25 14:44 | 29.02907 | -55.60252 | 39033 ft | 547 kts | 91° |
| 2026-04-25 14:44 | 29.03041 | -55.51566 | 39025 ft | 547 kts | 91° |
| 2026-04-25 14:45 | 29.03166 | -55.42874 | 39048 ft | 547 kts | 92° |
| 2026-04-25 14:45 | 29.03275 | -55.34192 | 39044 ft | 547 kts | 92° |
| 2026-04-25 14:46 | 29.03387 | -55.25510 | 39022 ft | 546 kts | 91° |
| 2026-04-25 14:46 | 29.03506 | -55.16817 | 39018 ft | 547 kts | 91° |
| 2026-04-25 14:47 | 29.03583 | -55.11003 | 39024 ft | 547 kts | 91° |
| 2026-04-25 14:47 | 29.03715 | -54.99425 | 38997 ft | 548 kts | 91° |
| 2026-04-25 14:48 | 29.03803 | -54.90713 | 39011 ft | 549 kts | 92° |
| 2026-04-25 14:48 | 29.03891 | -54.82044 | 39022 ft | 549 kts | 91° |
| 2026-04-25 14:49 | 29.03982 | -54.73309 | 39044 ft | 550 kts | 92° |
| 2026-04-25 14:49 | 29.04042 | -54.66040 | 39044 ft | 550 kts | 92° |
| 2026-04-25 14:50 | 29.04108 | -54.57302 | 39044 ft | 550 kts | 92° |
| 2026-04-25 14:50 | 29.04173 | -54.48568 | 39031 ft | 550 kts | 92° |
| 2026-04-25 14:51 | 29.04237 | -54.39826 | 39032 ft | 550 kts | 92° |
| 2026-04-25 14:51 | 29.04297 | -54.31076 | 39034 ft | 551 kts | 92° |
| 2026-04-25 14:52 | 29.04343 | -54.22363 | 39024 ft | 551 kts | 92° |
| 2026-04-25 14:52 | 29.04378 | -54.15087 | 39025 ft | 551 kts | 92° |
| 2026-04-25 14:53 | 29.04422 | -54.04848 | 39027 ft | 551 kts | 92° |
| 2026-04-25 14:53 | 29.04458 | -53.96090 | 39045 ft | 551 kts | 92° |
| 2026-04-25 14:54 | 29.04491 | -53.87383 | 39044 ft | 551 kts | 92° |
| 2026-04-25 14:54 | 29.04508 | -53.78623 | 39043 ft | 551 kts | 92° |
| 2026-04-25 14:55 | 29.04525 | -53.69861 | 39023 ft | 551 kts | 92° |
| 2026-04-25 14:55 | 29.04540 | -53.61094 | 39025 ft | 552 kts | 92° |
| 2026-04-25 14:56 | 29.04540 | -53.52311 | 39032 ft | 553 kts | 92° |
| 2026-04-25 14:56 | 29.04532 | -53.43521 | 39038 ft | 553 kts | 92° |
| 2026-04-25 14:57 | 29.04525 | -53.34784 | 39039 ft | 553 kts | 92° |
| 2026-04-25 14:57 | 29.04518 | -53.26000 | 39039 ft | 553 kts | 92° |
| 2026-04-25 14:58 | 29.04498 | -53.17214 | 39051 ft | 552 kts | 92° |
| 2026-04-25 14:58 | 29.04475 | -53.08435 | 39045 ft | 551 kts | 92° |
| 2026-04-25 14:59 | 29.04443 | -52.99673 | 39026 ft | 551 kts | 92° |
| 2026-04-25 14:59 | 29.04406 | -52.90911 | 39027 ft | 552 kts | 92° |
| 2026-04-25 15:00 | 29.04361 | -52.82143 | 39029 ft | 552 kts | 92° |
| 2026-04-25 15:00 | 29.04311 | -52.73365 | 39019 ft | 553 kts | 92° |
| 2026-04-25 15:01 | 29.04252 | -52.64634 | 39024 ft | 553 kts | 92° |
| 2026-04-25 15:01 | 29.04200 | -52.55835 | 39028 ft | 553 kts | 92° |
| 2026-04-25 15:02 | 29.04144 | -52.47026 | 39054 ft | 554 kts | 92° |
| 2026-04-25 15:02 | 29.04073 | -52.38217 | 39051 ft | 554 kts | 93° |
| 2026-04-25 15:03 | 29.04000 | -52.29415 | 39049 ft | 553 kts | 93° |
| 2026-04-25 15:03 | 29.03917 | -52.20678 | 39023 ft | 553 kts | 93° |
| 2026-04-25 15:04 | 29.03829 | -52.11878 | 39024 ft | 554 kts | 93° |
| 2026-04-25 15:04 | 29.03734 | -52.03072 | 39019 ft | 554 kts | 93° |
| 2026-04-25 15:05 | 29.03639 | -51.94262 | 39022 ft | 555 kts | 93° |
| 2026-04-25 15:06 | 29.03481 | -51.81042 | 39025 ft | 555 kts | 93° |
| 2026-04-25 15:06 | 29.03368 | -51.72218 | 39044 ft | 555 kts | 93° |
| 2026-04-25 15:07 | 29.03249 | -51.63397 | 39043 ft | 555 kts | 93° |
| 2026-04-25 15:07 | 29.03119 | -51.54581 | 39022 ft | 555 kts | 93° |
| 2026-04-25 15:08 | 29.02986 | -51.45753 | 39024 ft | 556 kts | 93° |
| 2026-04-25 15:08 | 29.02851 | -51.36964 | 39028 ft | 556 kts | 93° |
| 2026-04-25 15:09 | 29.02704 | -51.28113 | 39021 ft | 557 kts | 93° |
| 2026-04-25 15:09 | 29.02480 | -51.14828 | 39030 ft | 558 kts | 93° |
| 2026-04-25 15:10 | 29.02324 | -51.05957 | 39065 ft | 558 kts | 93° |
| 2026-04-25 15:11 | 29.02086 | -50.92720 | 39056 ft | 557 kts | 93° |
| 2026-04-25 15:11 | 29.01921 | -50.83862 | 39033 ft | 557 kts | 93° |
| 2026-04-25 15:12 | 29.01640 | -50.70575 | 39039 ft | 558 kts | 93° |
| 2026-04-25 15:12 | 29.01511 | -50.64702 | 39036 ft | 558 kts | 93° |
| 2026-04-25 15:13 | 29.01170 | -50.48396 | 39039 ft | 559 kts | 93° |
| 2026-04-25 15:14 | 29.00979 | -50.39581 | 39023 ft | 559 kts | 93° |
| 2026-04-25 15:14 | 29.00764 | -50.30706 | 39059 ft | 559 kts | 94° |
| 2026-04-25 15:15 | 29.00579 | -50.23331 | 39060 ft | 559 kts | 93° |
| 2026-04-25 15:15 | 29.00327 | -50.12960 | 39034 ft | 559 kts | 93° |
| 2026-04-25 15:16 | 29.00104 | -50.04086 | 39036 ft | 559 kts | 93° |
| 2026-04-25 15:16 | 28.99971 | -49.90765 | 39036 ft | 560 kts | 89° |
| 2026-04-25 15:17 | 29.00386 | -49.77421 | 39043 ft | 560 kts | 89° |
| 2026-04-25 15:18 | 29.00597 | -49.68536 | 39024 ft | 560 kts | 90° |
| 2026-04-25 15:18 | 29.00756 | -49.55203 | 39033 ft | 560 kts | 90° |
| 2026-04-25 15:19 | 29.00827 | -49.49307 | 39026 ft | 560 kts | 90° |
| 2026-04-25 15:19 | 29.01004 | -49.37466 | 39039 ft | 560 kts | 90° |
| 2026-04-25 15:20 | 29.01129 | -49.28563 | 39037 ft | 560 kts | 90° |
| 2026-04-25 15:20 | 29.01244 | -49.19644 | 39046 ft | 560 kts | 90° |
| 2026-04-25 15:21 | 29.01354 | -49.10735 | 39070 ft | 561 kts | 90° |
| 2026-04-25 15:21 | 29.01458 | -49.01828 | 39064 ft | 561 kts | 90° |
| 2026-04-25 15:22 | 29.01553 | -48.92980 | 39065 ft | 560 kts | 90° |
| 2026-04-25 15:22 | 29.01648 | -48.84079 | 39066 ft | 560 kts | 90° |
| 2026-04-25 15:23 | 29.01735 | -48.75175 | 39064 ft | 560 kts | 90° |
| 2026-04-25 15:23 | 29.01809 | -48.66266 | 39064 ft | 560 kts | 90° |
| 2026-04-25 15:24 | 29.01883 | -48.57373 | 39058 ft | 560 kts | 90° |
| 2026-04-25 15:24 | 29.01932 | -48.51421 | 39085 ft | 560 kts | 90° |
| 2026-04-25 15:25 | 29.02021 | -48.39635 | 39059 ft | 559 kts | 90° |
| 2026-04-25 15:25 | 29.02070 | -48.30747 | 39068 ft | 559 kts | 90° |
| 2026-04-25 15:26 | 29.02118 | -48.21861 | 39071 ft | 559 kts | 90° |
| 2026-04-25 15:26 | 29.02162 | -48.12973 | 39074 ft | 559 kts | 90° |
| 2026-04-25 15:27 | 29.02206 | -48.04134 | 39078 ft | 559 kts | 90° |
| 2026-04-25 15:28 | 29.02249 | -47.90781 | 39081 ft | 559 kts | 90° |
| 2026-04-25 15:28 | 29.02269 | -47.81896 | 39084 ft | 559 kts | 90° |
| 2026-04-25 15:29 | 29.02289 | -47.73066 | 39070 ft | 559 kts | 90° |
| 2026-04-25 15:29 | 29.02303 | -47.64186 | 39074 ft | 559 kts | 90° |
| 2026-04-25 15:30 | 29.02312 | -47.55303 | 39071 ft | 559 kts | 90° |
| 2026-04-25 15:30 | 29.02320 | -47.46426 | 39077 ft | 559 kts | 90° |
| 2026-04-25 15:31 | 29.02313 | -47.37597 | 39091 ft | 558 kts | 90° |
| 2026-04-25 15:31 | 29.02294 | -47.28731 | 39086 ft | 558 kts | 90° |
| 2026-04-25 15:32 | 29.02277 | -47.19860 | 39084 ft | 558 kts | 90° |
| 2026-04-25 15:32 | 29.02259 | -47.10998 | 39074 ft | 558 kts | 90° |
| 2026-04-25 15:33 | 29.02208 | -46.97709 | 39078 ft | 558 kts | 90° |
| 2026-04-25 15:33 | 29.02162 | -46.88848 | 39072 ft | 558 kts | 90° |
| 2026-04-25 15:34 | 29.02120 | -46.79985 | 39094 ft | 558 kts | 90° |
| 2026-04-25 15:34 | 29.02092 | -46.74108 | 39091 ft | 557 kts | 90° |
| 2026-04-25 15:35 | 29.01994 | -46.57891 | 39086 ft | 557 kts | 90° |
| 2026-04-25 15:36 | 29.01901 | -46.44630 | 39077 ft | 556 kts | 90° |
| 2026-04-25 15:36 | 29.01828 | -46.35788 | 39075 ft | 556 kts | 90° |
| 2026-04-25 15:37 | 29.01749 | -46.26946 | 39104 ft | 556 kts | 90° |
| 2026-04-25 15:37 | 29.01664 | -46.18108 | 39100 ft | 556 kts | 90° |
| 2026-04-25 15:38 | 29.01578 | -46.09266 | 39090 ft | 556 kts | 90° |
| 2026-04-25 15:38 | 29.01478 | -46.00429 | 39095 ft | 556 kts | 90° |
| 2026-04-25 15:39 | 29.01373 | -45.91640 | 39091 ft | 556 kts | 90° |
| 2026-04-25 15:39 | 29.01271 | -45.82801 | 39095 ft | 556 kts | 90° |
| 2026-04-25 15:40 | 29.01198 | -45.76890 | 39103 ft | 556 kts | 90° |
| 2026-04-25 15:40 | 29.01045 | -45.65133 | 39102 ft | 556 kts | 90° |
| 2026-04-25 15:41 | 29.00921 | -45.56309 | 39095 ft | 555 kts | 90° |
| 2026-04-25 15:41 | 29.00789 | -45.47533 | 39100 ft | 555 kts | 90° |
| 2026-04-25 15:42 | 29.00651 | -45.38704 | 39096 ft | 555 kts | 90° |
| 2026-04-25 15:42 | 29.00506 | -45.29887 | 39116 ft | 555 kts | 90° |
| 2026-04-25 15:43 | 29.00366 | -45.21063 | 39114 ft | 555 kts | 90° |
| 2026-04-25 15:43 | 29.00245 | -45.13723 | 39101 ft | 555 kts | 90° |
| 2026-04-25 15:44 | 29.00015 | -45.03472 | 39103 ft | 556 kts | 95° |
| 2026-04-25 15:44 | 28.98371 | -44.94907 | 39103 ft | 550 kts | 114° |
| 2026-04-25 15:45 | 28.96170 | -44.88085 | 39101 ft | 550 kts | 114° |
| 2026-04-25 15:45 | 28.93964 | -44.81218 | 39083 ft | 550 kts | 114° |
| 2026-04-25 15:46 | 28.90912 | -44.71667 | 39103 ft | 551 kts | 114° |
| 2026-04-25 15:46 | 28.88271 | -44.63456 | 39106 ft | 551 kts | 114° |
| 2026-04-25 15:47 | 28.85613 | -44.55251 | 39090 ft | 551 kts | 114° |
| 2026-04-25 15:47 | 28.82952 | -44.47041 | 39097 ft | 551 kts | 114° |
| 2026-04-25 15:48 | 28.80288 | -44.38839 | 39115 ft | 552 kts | 114° |
| 2026-04-25 15:48 | 28.77638 | -44.30687 | 39118 ft | 552 kts | 114° |
| 2026-04-25 15:49 | 28.74963 | -44.22481 | 39110 ft | 552 kts | 114° |
| 2026-04-25 15:49 | 28.72283 | -44.14279 | 39119 ft | 552 kts | 114° |
| 2026-04-25 15:50 | 28.69591 | -44.06076 | 39123 ft | 553 kts | 114° |
| 2026-04-25 15:50 | 28.66899 | -43.97867 | 39112 ft | 553 kts | 114° |
| 2026-04-25 15:51 | 28.64663 | -43.91053 | 39113 ft | 553 kts | 114° |
| 2026-04-25 15:51 | 28.61521 | -43.81532 | 39127 ft | 553 kts | 114° |
| 2026-04-25 15:52 | 28.58798 | -43.73335 | 39132 ft | 553 kts | 114° |
| 2026-04-25 15:52 | 28.56083 | -43.65138 | 39109 ft | 553 kts | 114° |
| 2026-04-25 15:53 | 28.53368 | -43.56943 | 39118 ft | 553 kts | 114° |
| 2026-04-25 15:53 | 28.50640 | -43.48736 | 39124 ft | 553 kts | 114° |
| 2026-04-25 15:54 | 28.47923 | -43.40612 | 39138 ft | 553 kts | 114° |
| 2026-04-25 15:54 | 28.45188 | -43.32425 | 39121 ft | 553 kts | 114° |
| 2026-04-25 15:55 | 28.42451 | -43.24254 | 39124 ft | 554 kts | 114° |
| 2026-04-25 15:55 | 28.39699 | -43.16081 | 39128 ft | 553 kts | 114° |
| 2026-04-25 15:56 | 28.36936 | -43.07925 | 39108 ft | 553 kts | 114° |
| 2026-04-25 15:56 | 28.34182 | -42.99780 | 39134 ft | 553 kts | 114° |
| 2026-04-25 15:57 | 28.31447 | -42.91663 | 39134 ft | 553 kts | 114° |
| 2026-04-25 15:57 | 28.28685 | -42.83509 | 39132 ft | 553 kts | 114° |
| 2026-04-25 15:58 | 28.25916 | -42.75363 | 39121 ft | 553 kts | 114° |
| 2026-04-25 15:58 | 28.23135 | -42.67204 | 39134 ft | 553 kts | 114° |
| 2026-04-25 15:59 | 28.20353 | -42.59068 | 39150 ft | 553 kts | 114° |
| 2026-04-25 15:59 | 28.17567 | -42.50931 | 39135 ft | 554 kts | 114° |
| 2026-04-25 16:00 | 28.15718 | -42.45541 | 39132 ft | 554 kts | 114° |
| 2026-04-25 16:00 | 28.11998 | -42.34706 | 39146 ft | 554 kts | 114° |
| 2026-04-25 16:01 | 28.09195 | -42.26568 | 39140 ft | 555 kts | 114° |
| 2026-04-25 16:01 | 28.06385 | -42.18442 | 39132 ft | 554 kts | 114° |
| 2026-04-25 16:02 | 28.03575 | -42.10314 | 39139 ft | 554 kts | 114° |
| 2026-04-25 16:02 | 28.00749 | -42.02194 | 39141 ft | 554 kts | 114° |
| 2026-04-25 16:03 | 27.97282 | -41.94467 | 39146 ft | 550 kts | 123° |
| 2026-04-25 16:03 | 27.93574 | -41.86906 | 39133 ft | 550 kts | 123° |
| 2026-04-25 16:04 | 27.89864 | -41.79329 | 39138 ft | 550 kts | 123° |
| 2026-04-25 16:04 | 27.86153 | -41.71757 | 39147 ft | 550 kts | 123° |
| 2026-04-25 16:05 | 27.82448 | -41.64236 | 39113 ft | 550 kts | 123° |
| 2026-04-25 16:06 | 27.76859 | -41.52899 | 39145 ft | 550 kts | 123° |
| 2026-04-25 16:06 | 27.73152 | -41.45399 | 39140 ft | 550 kts | 123° |
| 2026-04-25 16:07 | 27.69424 | -41.37851 | 39108 ft | 551 kts | 123° |
| 2026-04-25 16:07 | 27.65685 | -41.30309 | 39131 ft | 551 kts | 123° |
| 2026-04-25 16:08 | 27.61934 | -41.22771 | 39136 ft | 551 kts | 123° |
| 2026-04-25 16:08 | 27.58181 | -41.15238 | 39137 ft | 551 kts | 123° |
| 2026-04-25 16:09 | 27.54425 | -41.07707 | 39124 ft | 551 kts | 123° |
| 2026-04-25 16:09 | 27.50666 | -41.00181 | 39134 ft | 551 kts | 123° |
| 2026-04-25 16:10 | 27.46895 | -40.92648 | 39141 ft | 551 kts | 123° |
| 2026-04-25 16:10 | 27.43128 | -40.85126 | 39125 ft | 551 kts | 123° |
| 2026-04-25 16:11 | 27.39378 | -40.77662 | 39139 ft | 551 kts | 123° |
| 2026-04-25 16:11 | 27.35597 | -40.70154 | 39146 ft | 551 kts | 123° |
| 2026-04-25 16:12 | 27.31809 | -40.62637 | 39149 ft | 552 kts | 123° |
| 2026-04-25 16:12 | 27.28016 | -40.55132 | 39129 ft | 551 kts | 123° |
| 2026-04-25 16:13 | 27.24250 | -40.47677 | 39141 ft | 551 kts | 124° |
| 2026-04-25 16:13 | 27.20454 | -40.40183 | 39150 ft | 551 kts | 123° |
| 2026-04-25 16:14 | 27.16664 | -40.32698 | 39121 ft | 551 kts | 123° |
| 2026-04-25 16:14 | 27.12867 | -40.25221 | 39153 ft | 550 kts | 123° |
| 2026-04-25 16:15 | 27.09072 | -40.17758 | 39146 ft | 551 kts | 124° |
| 2026-04-25 16:15 | 27.05260 | -40.10299 | 39142 ft | 551 kts | 124° |
| 2026-04-25 16:16 | 27.01441 | -40.02846 | 39139 ft | 551 kts | 124° |
| 2026-04-25 16:16 | 26.97678 | -39.95363 | 39140 ft | 551 kts | 122° |
| 2026-04-25 16:17 | 26.94133 | -39.87733 | 39137 ft | 552 kts | 120° |
| 2026-04-25 16:17 | 26.90680 | -39.80114 | 39147 ft | 552 kts | 120° |
| 2026-04-25 16:18 | 26.87135 | -39.72472 | 39135 ft | 553 kts | 121° |
| 2026-04-25 16:18 | 26.83531 | -39.64869 | 39130 ft | 553 kts | 121° |
| 2026-04-25 16:19 | 26.79920 | -39.57265 | 39143 ft | 553 kts | 121° |
| 2026-04-25 16:19 | 26.76314 | -39.49644 | 39132 ft | 554 kts | 121° |
| 2026-04-25 16:20 | 26.70917 | -39.38204 | 39129 ft | 554 kts | 121° |
| 2026-04-25 16:21 | 26.65491 | -39.26763 | 39138 ft | 555 kts | 121° |
| 2026-04-25 16:21 | 26.61879 | -39.19188 | 39106 ft | 555 kts | 121° |
| 2026-04-25 16:22 | 26.58257 | -39.11577 | 39151 ft | 554 kts | 121° |
| 2026-04-25 16:22 | 26.54621 | -39.03955 | 39141 ft | 555 kts | 121° |
| 2026-04-25 16:23 | 26.50969 | -38.96332 | 39136 ft | 556 kts | 121° |
| 2026-04-25 16:23 | 26.47333 | -38.88750 | 39114 ft | 556 kts | 121° |
| 2026-04-25 16:24 | 26.43685 | -38.81130 | 39141 ft | 555 kts | 121° |
| 2026-04-25 16:24 | 26.40042 | -38.73538 | 39143 ft | 554 kts | 121° |
| 2026-04-25 16:25 | 26.36398 | -38.65976 | 39158 ft | 553 kts | 121° |
| 2026-04-25 16:25 | 26.32749 | -38.58407 | 39123 ft | 554 kts | 121° |
| 2026-04-25 16:26 | 26.29104 | -38.50853 | 39146 ft | 553 kts | 121° |
| 2026-04-25 16:26 | 26.25481 | -38.43367 | 39145 ft | 552 kts | 121° |
| 2026-04-25 16:27 | 26.21828 | -38.35844 | 39134 ft | 552 kts | 121° |
| 2026-04-25 16:27 | 26.18180 | -38.28322 | 39111 ft | 552 kts | 121° |
| 2026-04-25 16:28 | 26.14527 | -38.20812 | 39137 ft | 551 kts | 121° |
| 2026-04-25 16:28 | 26.10876 | -38.13308 | 39152 ft | 551 kts | 121° |
| 2026-04-25 16:29 | 26.07212 | -38.05806 | 39135 ft | 551 kts | 121° |
| 2026-04-25 16:29 | 26.03565 | -37.98352 | 39102 ft | 551 kts | 121° |
| 2026-04-25 16:30 | 26.01109 | -37.93338 | 39151 ft | 551 kts | 121° |
| 2026-04-25 16:30 | 25.96242 | -37.83408 | 39133 ft | 551 kts | 121° |
| 2026-04-25 16:31 | 25.92573 | -37.75932 | 39131 ft | 551 kts | 121° |
| 2026-04-25 16:31 | 25.88895 | -37.68457 | 39104 ft | 551 kts | 121° |
| 2026-04-25 16:32 | 25.85218 | -37.60989 | 39130 ft | 551 kts | 121° |
| 2026-04-25 16:32 | 25.81532 | -37.53525 | 39134 ft | 551 kts | 121° |
| 2026-04-25 16:33 | 25.77844 | -37.46070 | 39158 ft | 551 kts | 121° |
| 2026-04-25 16:33 | 25.74168 | -37.38663 | 39140 ft | 551 kts | 121° |
| 2026-04-25 16:34 | 25.70463 | -37.31203 | 39126 ft | 551 kts | 121° |
| 2026-04-25 16:34 | 25.66770 | -37.23749 | 39136 ft | 550 kts | 121° |
| 2026-04-25 16:35 | 25.63095 | -37.16367 | 39143 ft | 550 kts | 121° |
| 2026-04-25 16:35 | 25.59394 | -37.08942 | 39142 ft | 551 kts | 121° |
| 2026-04-25 16:36 | 25.55676 | -37.01519 | 39122 ft | 550 kts | 122° |
| 2026-04-25 16:36 | 25.51967 | -36.94107 | 39143 ft | 550 kts | 121° |
| 2026-04-25 16:37 | 25.48886 | -36.87949 | 39142 ft | 550 kts | 121° |
| 2026-04-25 16:37 | 25.45175 | -36.80546 | 39139 ft | 550 kts | 122° |
| 2026-04-25 16:38 | 25.41453 | -36.73140 | 39153 ft | 550 kts | 121° |
| 2026-04-25 16:38 | 25.37732 | -36.65744 | 39139 ft | 551 kts | 121° |
| 2026-04-25 16:39 | 25.33998 | -36.58337 | 39131 ft | 551 kts | 121° |
| 2026-04-25 16:39 | 25.30279 | -36.50974 | 39130 ft | 552 kts | 122° |
| 2026-04-25 16:40 | 25.26529 | -36.43573 | 39093 ft | 552 kts | 122° |
| 2026-04-25 16:40 | 25.22788 | -36.36179 | 39128 ft | 551 kts | 122° |
| 2026-04-25 16:41 | 25.19050 | -36.28801 | 39142 ft | 550 kts | 122° |
| 2026-04-25 16:41 | 25.13427 | -36.17760 | 39147 ft | 550 kts | 122° |
| 2026-04-25 16:42 | 25.09676 | -36.10401 | 39110 ft | 550 kts | 122° |
| 2026-04-25 16:42 | 25.05955 | -36.03102 | 39130 ft | 549 kts | 122° |
| 2026-04-25 16:43 | 25.02204 | -35.95769 | 39143 ft | 549 kts | 122° |
| 2026-04-25 16:43 | 24.98455 | -35.88437 | 39135 ft | 549 kts | 122° |
| 2026-04-25 16:44 | 24.94698 | -35.81101 | 39131 ft | 549 kts | 122° |
| 2026-04-25 16:44 | 24.90942 | -35.73786 | 39137 ft | 548 kts | 122° |
| 2026-04-25 16:45 | 24.87181 | -35.66475 | 39132 ft | 548 kts | 122° |
| 2026-04-25 16:45 | 24.83417 | -35.59167 | 39131 ft | 548 kts | 122° |
| 2026-04-25 16:46 | 24.79649 | -35.51872 | 39132 ft | 548 kts | 122° |
| 2026-04-25 16:46 | 24.76515 | -35.45807 | 39113 ft | 548 kts | 122° |
| 2026-04-25 16:47 | 24.72127 | -35.37323 | 39125 ft | 548 kts | 122° |
| 2026-04-25 16:47 | 24.68351 | -35.30038 | 39131 ft | 548 kts | 122° |
| 2026-04-25 16:48 | 24.64576 | -35.22759 | 39147 ft | 548 kts | 122° |
| 2026-04-25 16:48 | 24.60789 | -35.15462 | 39141 ft | 549 kts | 122° |
| 2026-04-25 16:49 | 24.56996 | -35.08170 | 39132 ft | 549 kts | 122° |
| 2026-04-25 16:49 | 24.53204 | -35.00896 | 39140 ft | 548 kts | 122° |
| 2026-04-25 16:50 | 24.49406 | -34.93634 | 39146 ft | 548 kts | 122° |
| 2026-04-25 16:50 | 24.45606 | -34.86391 | 39140 ft | 548 kts | 122° |
| 2026-04-25 16:51 | 24.41836 | -34.79187 | 39121 ft | 547 kts | 122° |
| 2026-04-25 16:51 | 24.38663 | -34.73121 | 39144 ft | 546 kts | 122° |
| 2026-04-25 16:52 | 24.34251 | -34.64725 | 39137 ft | 546 kts | 122° |
| 2026-04-25 16:52 | 24.30450 | -34.57506 | 39137 ft | 547 kts | 123° |
| 2026-04-25 16:53 | 24.24742 | -34.46687 | 39118 ft | 547 kts | 122° |
| 2026-04-25 16:54 | 24.20942 | -34.39471 | 39131 ft | 546 kts | 122° |
| 2026-04-25 16:54 | 24.17134 | -34.32258 | 39135 ft | 546 kts | 123° |
| 2026-04-25 16:55 | 24.13318 | -34.25062 | 39143 ft | 546 kts | 123° |
| 2026-04-25 16:55 | 24.09514 | -34.17910 | 39155 ft | 547 kts | 123° |
| 2026-04-25 16:56 | 24.05698 | -34.10718 | 39125 ft | 546 kts | 123° |
| 2026-04-25 16:56 | 24.01878 | -34.03541 | 39133 ft | 545 kts | 123° |
| 2026-04-25 16:57 | 23.98018 | -33.96407 | 39136 ft | 545 kts | 124° |
| 2026-04-25 16:57 | 23.94007 | -33.89393 | 39140 ft | 544 kts | 126° |
| 2026-04-25 16:58 | 23.89922 | -33.82425 | 39140 ft | 544 kts | 126° |
| 2026-04-25 16:58 | 23.85872 | -33.75444 | 39129 ft | 543 kts | 125° |
| 2026-04-25 16:59 | 23.81863 | -33.68444 | 39149 ft | 542 kts | 125° |
| 2026-04-25 16:59 | 23.77858 | -33.61457 | 39143 ft | 542 kts | 125° |
| 2026-04-25 17:00 | 23.73866 | -33.54535 | 39143 ft | 542 kts | 125° |
| 2026-04-25 17:00 | 23.69835 | -33.47576 | 39136 ft | 542 kts | 125° |
| 2026-04-25 17:01 | 23.65805 | -33.40608 | 39156 ft | 542 kts | 125° |
| 2026-04-25 17:01 | 23.61775 | -33.33650 | 39142 ft | 543 kts | 125° |
| 2026-04-25 17:02 | 23.57744 | -33.26694 | 39133 ft | 543 kts | 125° |
| 2026-04-25 17:02 | 23.53703 | -33.19731 | 39128 ft | 543 kts | 125° |
| 2026-04-25 17:03 | 23.49660 | -33.12785 | 39116 ft | 543 kts | 125° |
| 2026-04-25 17:03 | 23.45619 | -33.05844 | 39125 ft | 542 kts | 125° |
| 2026-04-25 17:04 | 23.41605 | -32.98946 | 39127 ft | 542 kts | 125° |
| 2026-04-25 17:04 | 23.37561 | -32.92026 | 39129 ft | 542 kts | 126° |
| 2026-04-25 17:05 | 23.33501 | -32.85118 | 39133 ft | 542 kts | 126° |
| 2026-04-25 17:05 | 23.27417 | -32.74752 | 39126 ft | 541 kts | 125° |
| 2026-04-25 17:06 | 23.23381 | -32.67849 | 39126 ft | 541 kts | 125° |
| 2026-04-25 17:06 | 23.19337 | -32.60959 | 39134 ft | 540 kts | 126° |
| 2026-04-25 17:07 | 23.15304 | -32.54125 | 39130 ft | 541 kts | 126° |
| 2026-04-25 17:07 | 23.11245 | -32.47239 | 39111 ft | 540 kts | 126° |
| 2026-04-25 17:08 | 23.07198 | -32.40368 | 39123 ft | 540 kts | 126° |
| 2026-04-25 17:08 | 23.03144 | -32.33506 | 39130 ft | 539 kts | 126° |
| 2026-04-25 17:09 | 22.99075 | -32.26639 | 39133 ft | 540 kts | 126° |
| 2026-04-25 17:09 | 22.95042 | -32.19818 | 39128 ft | 540 kts | 126° |
| 2026-04-25 17:10 | 22.90987 | -32.12962 | 39118 ft | 539 kts | 126° |
| 2026-04-25 17:10 | 22.86926 | -32.06131 | 39129 ft | 538 kts | 126° |
| 2026-04-25 17:11 | 22.82864 | -31.99304 | 39132 ft | 538 kts | 126° |
| 2026-04-25 17:11 | 22.78808 | -31.92493 | 39132 ft | 538 kts | 126° |
| 2026-04-25 17:12 | 22.74743 | -31.85694 | 39127 ft | 538 kts | 126° |
| 2026-04-25 17:12 | 22.70675 | -31.78901 | 39131 ft | 537 kts | 126° |
| 2026-04-25 17:13 | 22.67963 | -31.74355 | 39130 ft | 537 kts | 126° |
| 2026-04-25 17:13 | 22.62574 | -31.65327 | 39127 ft | 536 kts | 126° |
| 2026-04-25 17:14 | 22.58519 | -31.58559 | 39127 ft | 535 kts | 126° |
| 2026-04-25 17:14 | 22.54461 | -31.51807 | 39144 ft | 535 kts | 126° |
| 2026-04-25 17:15 | 22.50400 | -31.45059 | 39117 ft | 535 kts | 126° |
| 2026-04-25 17:15 | 22.46345 | -31.38309 | 39123 ft | 535 kts | 126° |
| 2026-04-25 17:16 | 22.42313 | -31.31609 | 39126 ft | 535 kts | 126° |
| 2026-04-25 17:16 | 22.38251 | -31.24875 | 39123 ft | 534 kts | 126° |
| 2026-04-25 17:17 | 22.34178 | -31.18160 | 39122 ft | 534 kts | 126° |
| 2026-04-25 17:17 | 22.30113 | -31.11453 | 39107 ft | 533 kts | 126° |
| 2026-04-25 17:18 | 22.26059 | -31.04736 | 39124 ft | 533 kts | 126° |
| 2026-04-25 17:18 | 22.22005 | -30.98041 | 39125 ft | 533 kts | 126° |
| 2026-04-25 17:19 | 22.17946 | -30.91357 | 39117 ft | 533 kts | 126° |
| 2026-04-25 17:19 | 22.13880 | -30.84665 | 39112 ft | 533 kts | 126° |
| 2026-04-25 17:20 | 22.09816 | -30.77993 | 39101 ft | 532 kts | 126° |
| 2026-04-25 17:20 | 22.05752 | -30.71337 | 39112 ft | 531 kts | 126° |
| 2026-04-25 17:21 | 22.01696 | -30.64683 | 39124 ft | 531 kts | 126° |
| 2026-04-25 17:21 | 21.97635 | -30.58030 | 39119 ft | 531 kts | 126° |
| 2026-04-25 17:22 | 21.94939 | -30.53618 | 39115 ft | 531 kts | 126° |
| 2026-04-25 17:22 | 21.89535 | -30.44778 | 39086 ft | 530 kts | 126° |
| 2026-04-25 17:23 | 21.85468 | -30.38156 | 39125 ft | 529 kts | 127° |
| 2026-04-25 17:23 | 21.82091 | -30.32654 | 39120 ft | 529 kts | 126° |
| 2026-04-25 17:24 | 21.77381 | -30.24979 | 39115 ft | 529 kts | 126° |
| 2026-04-25 17:24 | 21.73980 | -30.19456 | 39114 ft | 528 kts | 127° |
| 2026-04-25 17:25 | 21.69912 | -30.12861 | 39111 ft | 528 kts | 126° |
| 2026-04-25 17:25 | 21.65862 | -30.06271 | 39117 ft | 528 kts | 127° |
| 2026-04-25 17:26 | 21.61795 | -29.99685 | 39107 ft | 529 kts | 127° |
| 2026-04-25 17:26 | 21.57739 | -29.93148 | 39100 ft | 529 kts | 127° |
| 2026-04-25 17:27 | 21.53665 | -29.86575 | 39096 ft | 529 kts | 127° |
| 2026-04-25 17:27 | 21.50252 | -29.81064 | 39104 ft | 529 kts | 127° |
| 2026-04-25 17:28 | 21.45420 | -29.73500 | 39085 ft | 528 kts | 129° |
| 2026-04-25 17:28 | 21.41144 | -29.67107 | 39099 ft | 527 kts | 129° |
| 2026-04-25 17:29 | 21.36855 | -29.60726 | 39100 ft | 527 kts | 129° |
| 2026-04-25 17:29 | 21.32599 | -29.54315 | 39104 ft | 527 kts | 128° |
| 2026-04-25 17:30 | 21.28401 | -29.47920 | 39102 ft | 527 kts | 128° |
| 2026-04-25 17:30 | 21.24171 | -29.41509 | 39080 ft | 526 kts | 129° |
| 2026-04-25 17:31 | 21.19914 | -29.35113 | 39093 ft | 526 kts | 129° |
| 2026-04-25 17:31 | 21.15687 | -29.28758 | 39064 ft | 517 kts | 129° |
| 2026-04-25 17:32 | 21.11575 | -29.22572 | 39071 ft | 511 kts | 129° |
| 2026-04-25 17:32 | 21.07442 | -29.16369 | 39070 ft | 510 kts | 129° |
| 2026-04-25 17:33 | 21.03321 | -29.10185 | 39071 ft | 510 kts | 129° |
| 2026-04-25 17:33 | 20.99209 | -29.04012 | 39068 ft | 508 kts | 129° |
| 2026-04-25 17:34 | 20.95100 | -28.97869 | 39076 ft | 508 kts | 129° |
| 2026-04-25 17:34 | 20.90987 | -28.91727 | 39083 ft | 508 kts | 129° |
| 2026-04-25 17:35 | 20.86876 | -28.85585 | 39080 ft | 508 kts | 129° |
| 2026-04-25 17:35 | 20.82756 | -28.79444 | 39077 ft | 508 kts | 129° |
| 2026-04-25 17:36 | 20.78658 | -28.73336 | 39060 ft | 508 kts | 129° |
| 2026-04-25 17:36 | 20.74550 | -28.67206 | 39077 ft | 507 kts | 129° |
| 2026-04-25 17:37 | 20.70435 | -28.61087 | 39085 ft | 506 kts | 129° |
| 2026-04-25 17:37 | 20.66315 | -28.54982 | 39084 ft | 506 kts | 129° |
| 2026-04-25 17:38 | 20.62898 | -28.49901 | 39082 ft | 506 kts | 129° |
| 2026-04-25 17:38 | 20.58115 | -28.42806 | 39078 ft | 506 kts | 129° |
| 2026-04-25 17:39 | 20.53998 | -28.36716 | 39070 ft | 505 kts | 129° |
| 2026-04-25 17:39 | 20.49886 | -28.30637 | 39080 ft | 505 kts | 129° |
| 2026-04-25 17:40 | 20.45778 | -28.24570 | 39077 ft | 504 kts | 129° |
| 2026-04-25 17:40 | 20.41669 | -28.18510 | 39076 ft | 504 kts | 129° |
| 2026-04-25 17:41 | 20.37566 | -28.12455 | 39072 ft | 503 kts | 129° |
| 2026-04-25 17:41 | 20.33492 | -28.06452 | 39057 ft | 503 kts | 129° |
| 2026-04-25 17:42 | 20.29393 | -28.00421 | 39068 ft | 502 kts | 129° |
| 2026-04-25 17:42 | 20.25303 | -27.94402 | 39070 ft | 501 kts | 129° |
| 2026-04-25 17:43 | 20.21207 | -27.88388 | 39067 ft | 501 kts | 129° |
| 2026-04-25 17:43 | 20.17119 | -27.82396 | 39066 ft | 500 kts | 129° |
| 2026-04-25 17:44 | 20.13033 | -27.76409 | 39070 ft | 500 kts | 129° |
| 2026-04-25 17:44 | 20.08947 | -27.70432 | 39045 ft | 499 kts | 129° |
| 2026-04-25 17:45 | 20.05554 | -27.65463 | 39061 ft | 498 kts | 129° |
| 2026-04-25 17:45 | 20.00819 | -27.58527 | 39066 ft | 497 kts | 129° |
| 2026-04-25 17:46 | 19.96743 | -27.52577 | 39063 ft | 496 kts | 129° |
| 2026-04-25 17:46 | 19.92682 | -27.46653 | 39070 ft | 496 kts | 129° |
| 2026-04-25 17:47 | 19.88622 | -27.40735 | 39059 ft | 495 kts | 129° |
| 2026-04-25 17:47 | 19.84557 | -27.34822 | 39040 ft | 495 kts | 129° |
| 2026-04-25 17:48 | 19.78492 | -27.26006 | 39053 ft | 493 kts | 129° |
| 2026-04-25 17:49 | 19.74441 | -27.20122 | 39052 ft | 493 kts | 130° |
| 2026-04-25 17:49 | 19.70380 | -27.14257 | 39054 ft | 493 kts | 130° |
| 2026-04-25 17:50 | 19.66331 | -27.08389 | 39050 ft | 493 kts | 130° |
| 2026-04-25 17:50 | 19.62283 | -27.02527 | 39050 ft | 493 kts | 130° |
| 2026-04-25 17:51 | 19.58233 | -26.96669 | 39038 ft | 492 kts | 130° |
| 2026-04-25 17:51 | 19.54185 | -26.90813 | 39051 ft | 491 kts | 130° |
| 2026-04-25 17:52 | 19.50148 | -26.84986 | 39064 ft | 490 kts | 130° |
| 2026-04-25 17:52 | 19.46137 | -26.79201 | 39056 ft | 490 kts | 130° |
| 2026-04-25 17:53 | 19.42095 | -26.73383 | 39055 ft | 490 kts | 130° |
| 2026-04-25 17:53 | 19.38055 | -26.67573 | 39044 ft | 490 kts | 130° |
| 2026-04-25 17:54 | 19.34016 | -26.61761 | 39042 ft | 489 kts | 130° |
| 2026-04-25 17:54 | 19.29978 | -26.55959 | 39039 ft | 489 kts | 130° |
| 2026-04-25 17:55 | 19.25945 | -26.50166 | 39048 ft | 489 kts | 130° |
| 2026-04-25 17:55 | 19.21899 | -26.44365 | 39044 ft | 488 kts | 130° |
| 2026-04-25 17:56 | 19.17861 | -26.38595 | 39038 ft | 488 kts | 130° |
| 2026-04-25 17:56 | 19.13846 | -26.32858 | 39036 ft | 488 kts | 130° |
| 2026-04-25 17:57 | 19.09809 | -26.27082 | 39026 ft | 487 kts | 130° |
| 2026-04-25 17:57 | 19.05778 | -26.21322 | 39040 ft | 486 kts | 130° |
| 2026-04-25 17:58 | 19.01755 | -26.15579 | 39042 ft | 486 kts | 130° |
| 2026-04-25 17:58 | 18.97735 | -26.09846 | 39039 ft | 485 kts | 130° |
| 2026-04-25 17:59 | 18.93716 | -26.04122 | 39034 ft | 485 kts | 130° |
| 2026-04-25 17:59 | 18.89757 | -25.98409 | 39028 ft | 485 kts | 129° |
| 2026-04-25 18:00 | 18.86433 | -25.93586 | 39012 ft | 485 kts | 130° |
| 2026-04-25 18:00 | 18.81812 | -25.86896 | 39024 ft | 485 kts | 130° |
| 2026-04-25 18:01 | 18.77822 | -25.81159 | 39031 ft | 484 kts | 130° |
| 2026-04-25 18:01 | 18.73833 | -25.75433 | 39030 ft | 484 kts | 130° |
| 2026-04-25 18:02 | 18.69853 | -25.69708 | 39028 ft | 484 kts | 130° |
| 2026-04-25 18:02 | 18.65870 | -25.63976 | 39029 ft | 484 kts | 130° |
| 2026-04-25 18:03 | 18.61885 | -25.58253 | 39031 ft | 484 kts | 130° |
| 2026-04-25 18:03 | 18.57904 | -25.52537 | 39025 ft | 483 kts | 130° |
| 2026-04-25 18:04 | 18.53923 | -25.46834 | 39030 ft | 483 kts | 130° |
| 2026-04-25 18:04 | 18.49967 | -25.41177 | 39026 ft | 482 kts | 130° |
| 2026-04-25 18:05 | 18.45991 | -25.35492 | 39023 ft | 482 kts | 130° |
| 2026-04-25 18:05 | 18.42011 | -25.29804 | 39023 ft | 482 kts | 130° |
| 2026-04-25 18:06 | 18.38034 | -25.24131 | 39011 ft | 481 kts | 130° |
| 2026-04-25 18:06 | 18.34055 | -25.18460 | 38999 ft | 481 kts | 130° |
| 2026-04-25 18:07 | 18.30086 | -25.12807 | 39008 ft | 480 kts | 130° |
| 2026-04-25 18:07 | 18.26117 | -25.07161 | 39011 ft | 479 kts | 130° |
| 2026-04-25 18:08 | 18.22173 | -25.01545 | 39014 ft | 479 kts | 130° |
| 2026-04-25 18:08 | 18.18201 | -24.95909 | 39011 ft | 479 kts | 130° |
| 2026-04-25 18:09 | 18.14232 | -24.90274 | 39013 ft | 479 kts | 130° |
| 2026-04-25 18:09 | 18.10258 | -24.84641 | 39013 ft | 480 kts | 130° |
| 2026-04-25 18:10 | 18.06292 | -24.79008 | 39004 ft | 479 kts | 130° |
| 2026-04-25 18:10 | 18.02325 | -24.73378 | 39007 ft | 479 kts | 130° |
| 2026-04-25 18:11 | 17.98355 | -24.67767 | 39013 ft | 478 kts | 130° |
| 2026-04-25 18:11 | 17.94412 | -24.62198 | 39010 ft | 478 kts | 130° |
| 2026-04-25 18:12 | 17.90447 | -24.56594 | 39012 ft | 478 kts | 130° |
| 2026-04-25 18:12 | 17.86484 | -24.50989 | 39005 ft | 478 kts | 130° |
| 2026-04-25 18:13 | 17.82518 | -24.45397 | 38992 ft | 477 kts | 130° |
| 2026-04-25 18:13 | 17.78551 | -24.39813 | 38998 ft | 477 kts | 130° |
| 2026-04-25 18:14 | 17.73276 | -24.32383 | 39007 ft | 477 kts | 130° |
| 2026-04-25 18:14 | 17.69300 | -24.26814 | 39004 ft | 477 kts | 131° |
| 2026-04-25 18:15 | 17.65302 | -24.21261 | 38998 ft | 476 kts | 131° |
| 2026-04-25 18:15 | 17.60657 | -24.14823 | 38993 ft | 476 kts | 131° |
| 2026-04-25 18:16 | 17.57308 | -24.10181 | 38990 ft | 476 kts | 131° |
| 2026-04-25 18:17 | 17.51328 | -24.01877 | 38989 ft | 476 kts | 131° |
| 2026-04-25 18:17 | 17.47337 | -23.96356 | 38989 ft | 476 kts | 131° |
| 2026-04-25 18:18 | 17.43365 | -23.90861 | 38994 ft | 475 kts | 131° |
| 2026-04-25 18:18 | 17.39376 | -23.85339 | 38994 ft | 475 kts | 131° |
| 2026-04-25 18:19 | 17.35384 | -23.79823 | 38992 ft | 475 kts | 131° |
| 2026-04-25 18:19 | 17.31395 | -23.74320 | 38988 ft | 475 kts | 131° |
| 2026-04-25 18:20 | 17.27397 | -23.68812 | 38988 ft | 474 kts | 131° |
| 2026-04-25 18:20 | 17.23428 | -23.63346 | 38994 ft | 474 kts | 131° |
| 2026-04-25 18:21 | 17.19443 | -23.57857 | 39001 ft | 473 kts | 131° |
| 2026-04-25 18:21 | 17.15466 | -23.52379 | 38997 ft | 473 kts | 131° |
| 2026-04-25 18:22 | 17.11487 | -23.46903 | 38990 ft | 472 kts | 131° |
| 2026-04-25 18:22 | 17.07509 | -23.41434 | 38989 ft | 472 kts | 131° |
| 2026-04-25 18:23 | 17.03533 | -23.35977 | 38995 ft | 472 kts | 131° |
| 2026-04-25 18:23 | 16.99558 | -23.30521 | 38974 ft | 471 kts | 131° |
| 2026-04-25 18:24 | 16.95591 | -23.25083 | 38980 ft | 470 kts | 131° |
| 2026-04-25 18:24 | 16.91646 | -23.19690 | 38981 ft | 470 kts | 131° |
| 2026-04-25 18:25 | 16.87682 | -23.14269 | 38983 ft | 469 kts | 131° |
| 2026-04-25 18:25 | 16.83724 | -23.08852 | 38970 ft | 469 kts | 131° |
| 2026-04-25 18:26 | 16.79767 | -23.03443 | 38963 ft | 469 kts | 131° |
| 2026-04-25 18:26 | 16.75807 | -22.98039 | 38961 ft | 469 kts | 131° |
| 2026-04-25 18:27 | 16.72596 | -22.92094 | 38957 ft | 475 kts | 112° |
| 2026-04-25 18:27 | 16.70352 | -22.85598 | 38955 ft | 476 kts | 112° |
| 2026-04-25 18:28 | 16.68103 | -22.79104 | 38951 ft | 476 kts | 112° |
| 2026-04-25 18:28 | 16.65849 | -22.72651 | 38957 ft | 476 kts | 112° |
| 2026-04-25 18:29 | 16.62443 | -22.62900 | 38962 ft | 477 kts | 112° |
| 2026-04-25 18:30 | 16.57900 | -22.49922 | 38964 ft | 477 kts | 112° |
| 2026-04-25 18:30 | 16.55624 | -22.43416 | 38970 ft | 478 kts | 112° |
| 2026-04-25 18:31 | 16.53342 | -22.36913 | 38967 ft | 478 kts | 112° |
| 2026-04-25 18:31 | 16.51055 | -22.30408 | 38968 ft | 478 kts | 112° |
| 2026-04-25 18:32 | 16.48782 | -22.23934 | 38958 ft | 478 kts | 112° |
| 2026-04-25 18:32 | 16.46499 | -22.17437 | 38969 ft | 477 kts | 112° |
| 2026-04-25 18:33 | 16.44210 | -22.10950 | 38975 ft | 477 kts | 112° |
| 2026-04-25 18:33 | 16.41926 | -22.04464 | 38977 ft | 477 kts | 112° |
| 2026-04-25 18:34 | 16.39637 | -21.97982 | 38974 ft | 476 kts | 112° |
| 2026-04-25 18:34 | 16.37349 | -21.91509 | 38974 ft | 476 kts | 112° |
| 2026-04-25 18:35 | 16.35054 | -21.85029 | 38973 ft | 476 kts | 112° |
| 2026-04-25 18:35 | 16.32766 | -21.78583 | 38974 ft | 476 kts | 112° |
| 2026-04-25 18:36 | 16.30472 | -21.72116 | 38971 ft | 476 kts | 112° |
| 2026-04-25 18:36 | 16.28192 | -21.65687 | 38967 ft | 476 kts | 112° |
| 2026-04-25 18:37 | 16.25881 | -21.59235 | 38966 ft | 476 kts | 113° |
| 2026-04-25 18:37 | 16.23555 | -21.52783 | 38953 ft | 475 kts | 112° |
| 2026-04-25 18:38 | 16.21231 | -21.46343 | 38960 ft | 475 kts | 112° |
| 2026-04-25 18:38 | 16.18919 | -21.39906 | 38960 ft | 475 kts | 112° |
| 2026-04-25 18:39 | 16.16606 | -21.33468 | 38962 ft | 475 kts | 112° |
| 2026-04-25 18:39 | 16.14291 | -21.27040 | 38958 ft | 474 kts | 112° |
| 2026-04-25 18:40 | 16.11974 | -21.20609 | 38956 ft | 475 kts | 112° |
| 2026-04-25 18:40 | 16.09658 | -21.14180 | 38956 ft | 474 kts | 112° |
| 2026-04-25 18:41 | 16.07334 | -21.07760 | 38950 ft | 474 kts | 113° |
| 2026-04-25 18:41 | 16.05018 | -21.01383 | 38949 ft | 474 kts | 113° |
| 2026-04-25 18:42 | 16.03458 | -20.97091 | 38948 ft | 474 kts | 113° |
| 2026-04-25 18:42 | 16.00361 | -20.88547 | 38946 ft | 474 kts | 113° |
| 2026-04-25 18:43 | 15.98033 | -20.82130 | 38935 ft | 474 kts | 112° |
| 2026-04-25 18:43 | 15.95706 | -20.75726 | 38942 ft | 473 kts | 112° |
| 2026-04-25 18:44 | 15.93388 | -20.69360 | 38939 ft | 473 kts | 112° |
| 2026-04-25 18:44 | 15.91059 | -20.62975 | 38941 ft | 473 kts | 112° |
| 2026-04-25 18:45 | 15.88730 | -20.56583 | 38938 ft | 473 kts | 112° |
| 2026-04-25 18:45 | 15.86395 | -20.50202 | 38938 ft | 473 kts | 112° |
| 2026-04-25 18:46 | 15.84065 | -20.43813 | 38945 ft | 473 kts | 112° |
| 2026-04-25 18:46 | 15.81728 | -20.37427 | 38941 ft | 473 kts | 113° |
| 2026-04-25 18:47 | 15.79387 | -20.31045 | 38938 ft | 473 kts | 113° |
| 2026-04-25 18:47 | 15.77059 | -20.24693 | 38935 ft | 473 kts | 112° |
| 2026-04-25 18:48 | 15.74721 | -20.18308 | 38934 ft | 473 kts | 113° |
| 2026-04-25 18:48 | 15.72370 | -20.11922 | 38925 ft | 472 kts | 112° |
| 2026-04-25 18:49 | 15.70024 | -20.05549 | 38927 ft | 472 kts | 112° |
| 2026-04-25 18:49 | 15.67697 | -19.99227 | 38928 ft | 471 kts | 112° |
| 2026-04-25 18:50 | 15.65402 | -19.92854 | 38928 ft | 471 kts | 112° |
| 2026-04-25 18:50 | 15.63147 | -19.86470 | 38929 ft | 471 kts | 112° |
| 2026-04-25 18:51 | 15.61640 | -19.82198 | 38930 ft | 471 kts | 112° |
| 2026-04-25 18:51 | 15.58613 | -19.73724 | 38933 ft | 471 kts | 112° |
| 2026-04-25 18:52 | 15.56322 | -19.67356 | 38930 ft | 470 kts | 112° |
| 2026-04-25 18:52 | 15.54037 | -19.60999 | 38924 ft | 470 kts | 112° |
| 2026-04-25 18:53 | 15.51761 | -19.54645 | 38922 ft | 470 kts | 112° |
| 2026-04-25 18:53 | 15.49499 | -19.48326 | 38922 ft | 470 kts | 112° |
| 2026-04-25 18:54 | 15.45912 | -19.38870 | 38914 ft | 468 kts | 119° |
| 2026-04-25 18:55 | 15.43001 | -19.32843 | 38924 ft | 467 kts | 118° |
| 2026-04-25 18:55 | 15.40103 | -19.26815 | 38925 ft | 467 kts | 118° |
| 2026-04-25 18:56 | 15.37202 | -19.20787 | 38916 ft | 467 kts | 118° |
| 2026-04-25 18:56 | 15.34319 | -19.14816 | 38922 ft | 466 kts | 119° |
| 2026-04-25 18:57 | 15.31403 | -19.08815 | 38923 ft | 466 kts | 118° |
| 2026-04-25 18:57 | 15.28493 | -19.02811 | 38921 ft | 466 kts | 118° |
| 2026-04-25 18:58 | 15.25590 | -18.96808 | 38917 ft | 466 kts | 118° |
| 2026-04-25 18:58 | 15.21237 | -18.87798 | 38917 ft | 466 kts | 118° |
| 2026-04-25 18:59 | 15.15415 | -18.75812 | 38919 ft | 465 kts | 118° |
| 2026-04-25 19:00 | 15.12468 | -18.69760 | 38591 ft | 485 kts | 118° |
| 2026-04-25 19:00 | 15.10937 | -18.66618 | 38331 ft | 490 kts | 118° |
| 2026-04-25 19:01 | 15.07888 | -18.60349 | 37348 ft | 482 kts | 118° |
| 2026-04-25 19:01 | 15.06389 | -18.57263 | 36789 ft | 478 kts | 118° |
| 2026-04-25 19:01 | 15.04901 | -18.54204 | 36202 ft | 474 kts | 117° |
| 2026-04-25 19:01 | 15.03420 | -18.51166 | 35604 ft | 472 kts | 117° |
| 2026-04-25 19:02 | 15.00494 | -18.45168 | 34358 ft | 469 kts | 117° |
| 2026-04-25 19:02 | 14.99027 | -18.42161 | 33700 ft | 468 kts | 116° |
| 2026-04-25 19:02 | 14.97565 | -18.39162 | 33051 ft | 466 kts | 116° |
| 2026-04-25 19:03 | 14.95620 | -18.35171 | 32228 ft | 462 kts | 116° |
| 2026-04-25 19:03 | 14.93218 | -18.30250 | 31219 ft | 459 kts | 116° |
| 2026-04-25 19:03 | 14.91780 | -18.27306 | 30622 ft | 456 kts | 116° |
| 2026-04-25 19:04 | 14.88951 | -18.21512 | 29425 ft | 451 kts | 116° |
| 2026-04-25 19:04 | 14.87548 | -18.18642 | 28894 ft | 444 kts | 116° |
| 2026-04-25 19:05 | 14.84783 | -18.13011 | 27839 ft | 434 kts | 116° |
| 2026-04-25 19:05 | 14.82075 | -18.07502 | 26769 ft | 426 kts | 116° |
| 2026-04-25 19:05 | 14.80740 | -18.04778 | 26213 ft | 424 kts | 116° |
| 2026-04-25 19:06 | 14.79414 | -18.02068 | 25649 ft | 421 kts | 116° |
| 2026-04-25 19:06 | 14.76779 | -17.96681 | 24466 ft | 418 kts | 116° |
| 2026-04-25 19:06 | 14.75466 | -17.94007 | 24011 ft | 413 kts | 116° |
| 2026-04-25 19:07 | 14.72907 | -17.88804 | 22721 ft | 407 kts | 117° |
| 2026-04-25 19:07 | 14.71628 | -17.86199 | 22113 ft | 405 kts | 117° |
| 2026-04-25 19:08 | 14.69123 | -17.81106 | 20915 ft | 385 kts | 117° |
| 2026-04-25 19:08 | 14.67936 | -17.78694 | 20391 ft | 369 kts | 117° |
| 2026-04-25 19:09 | 14.64993 | -17.72708 | 19240 ft | 337 kts | 118° |
| 2026-04-25 19:09 | 14.64289 | -17.71277 | 18944 ft | 338 kts | 118° |
| 2026-04-25 19:09 | 14.61415 | -17.65448 | 17644 ft | 345 kts | 118° |
| 2026-04-25 19:10 | 14.60327 | -17.63241 | 17168 ft | 345 kts | 118° |
| 2026-04-25 19:10 | 14.59606 | -17.61781 | 16866 ft | 344 kts | 118° |
| 2026-04-25 19:10 | 14.58520 | -17.59579 | 16411 ft | 344 kts | 118° |
| 2026-04-25 19:10 | 14.57437 | -17.57381 | 15954 ft | 344 kts | 118° |
| 2026-04-25 19:11 | 14.56353 | -17.55182 | 15501 ft | 343 kts | 119° |
| 2026-04-25 19:11 | 14.55272 | -17.52987 | 15055 ft | 343 kts | 119° |
| 2026-04-25 19:11 | 14.54190 | -17.50795 | 14604 ft | 342 kts | 120° |
| 2026-04-25 19:11 | 14.53108 | -17.48611 | 14161 ft | 341 kts | 119° |
| 2026-04-25 19:12 | 14.52025 | -17.46428 | 13709 ft | 341 kts | 120° |
| 2026-04-25 19:12 | 14.50949 | -17.44257 | 13213 ft | 339 kts | 119° |
| 2026-04-25 19:12 | 14.49882 | -17.42101 | 12753 ft | 336 kts | 120° |
| 2026-04-25 19:12 | 14.48828 | -17.39968 | 12293 ft | 326 kts | 120° |
| 2026-04-25 19:13 | 14.47825 | -17.37931 | 11837 ft | 314 kts | 120° |
| 2026-04-25 19:13 | 14.46843 | -17.35943 | 11250 ft | 308 kts | 120° |
| 2026-04-25 19:13 | 14.45891 | -17.34020 | 10620 ft | 302 kts | 118° |
| 2026-04-25 19:13 | 14.44921 | -17.32065 | 9427 ft | 307 kts | 118° |
| 2026-04-25 19:14 | 14.43972 | -17.30149 | 8416 ft | 292 kts | 118° |
| 2026-04-25 19:14 | 14.43348 | -17.28891 | 7938 ft | 291 kts | 117° |
| 2026-04-25 19:14 | 14.42125 | -17.26426 | 7100 ft | 291 kts | 116° |
| 2026-04-25 19:14 | 14.41203 | -17.24567 | 6637 ft | 291 kts | 115° |
| 2026-04-25 19:15 | 14.40277 | -17.22702 | 6099 ft | 291 kts | 115° |
| 2026-04-25 19:15 | 14.39375 | -17.20883 | 5571 ft | 274 kts | 115° |
| 2026-04-25 19:15 | 14.38534 | -17.19188 | 5176 ft | 265 kts | 114° |
| 2026-04-25 19:15 | 14.37849 | -17.17429 | 5111 ft | 264 kts | 100° |
| 2026-04-25 19:16 | 14.37614 | -17.15585 | 4697 ft | 254 kts | 85° |
| 2026-04-25 19:16 | 14.37644 | -17.13808 | 4317 ft | 240 kts | 85° |
| 2026-04-25 19:16 | 14.37663 | -17.12134 | 3977 ft | 228 kts | 84° |
| 2026-04-25 19:16 | 14.37831 | -17.10504 | 3734 ft | 229 kts | 69° |
| 2026-04-25 19:17 | 14.38498 | -17.09028 | 3465 ft | 226 kts | 52° |
| 2026-04-25 19:17 | 14.39592 | -17.07885 | 3054 ft | 224 kts | 32° |
| 2026-04-25 19:17 | 14.40977 | -17.07210 | 2706 ft | 219 kts | 14° |
| 2026-04-25 19:17 | 14.42481 | -17.07054 | 2446 ft | 215 kts | 360° |
| 2026-04-25 19:18 | 14.43988 | -17.07071 | 2650 ft | 220 kts | 359° |
| 2026-04-25 19:18 | 14.45533 | -17.07081 | 2884 ft | 224 kts | 360° |
| 2026-04-25 19:18 | 14.47093 | -17.07095 | 2988 ft | 225 kts | 0° |
| 2026-04-25 19:18 | 14.48645 | -17.07110 | 3004 ft | 222 kts | 359° |
| 2026-04-25 19:19 | 14.50200 | -17.07124 | 3002 ft | 223 kts | 0° |
| 2026-04-25 19:19 | 14.51760 | -17.07139 | 2823 ft | 223 kts | 0° |
| 2026-04-25 19:19 | 14.53289 | -17.07153 | 2562 ft | 220 kts | 0° |
| 2026-04-25 19:19 | 14.54312 | -17.07163 | 2380 ft | 213 kts | 1° |
| 2026-04-25 19:20 | 14.55729 | -17.07177 | 2120 ft | 196 kts | 1° |
| 2026-04-25 19:20 | 14.57456 | -17.07193 | 1826 ft | 183 kts | 0° |
| 2026-04-25 19:20 | 14.58649 | -17.07205 | 1585 ft | 159 kts | 1° |
| 2026-04-25 19:20 | 14.59673 | -17.07215 | 1411 ft | 135 kts | 1° |
| 2026-04-25 19:21 | 14.60560 | -17.07222 | 1233 ft | 121 kts | 359° |
| 2026-04-25 19:21 | 14.62182 | -17.07237 | 928 ft | 116 kts | 1° |
| 2026-04-25 19:21 | 14.62977 | -17.07244 | 807 ft | 112 kts | 359° |
| 2026-04-25 19:22 | 14.63748 | -17.07251 | 662 ft | 111 kts | 358° |
| 2026-04-25 19:22 | 14.64520 | -17.07259 | 514 ft | 112 kts | 358° |
| 2026-04-25 19:22 | 14.66054 | -17.07272 | 291 ft | 105 kts | 359° |
| 2026-04-25 19:23 | 14.66639 | -17.07279 | 297 ft | 62 kts | 359° |
| 2026-04-25 19:23 | 14.67072 | -17.07193 | 299 ft | 9 kts | 83° |
| 2026-04-25 19:23 | 14.67074 | -17.07169 | 297 ft | 1 kts | 84° |
| 2026-04-25 19:24 | 14.67074 | -17.07166 | 297 ft | 0 kts | 90° |
| 2026-04-25 19:25 | 14.67075 | -17.07138 | 298 ft | 9 kts | 87° |
| 2026-04-25 19:25 | 14.67079 | -17.07066 | 296 ft | 11 kts | 90° |
| 2026-04-25 19:25 | 14.67104 | -17.06986 | 294 ft | 14 kts | 32° |
| 2026-04-25 19:26 | 14.67186 | -17.06952 | 294 ft | 8 kts | 79° |
| 2026-04-25 19:26 | 14.67147 | -17.06882 | 294 ft | 15 kts | 123° |
| 2026-04-25 19:26 | 14.67127 | -17.06851 | 294 ft | 0 kts | 123° |